<?xml version="1.0" encoding="UTF-8" standalone="no" ?>
<gpx xmlns="http://www.topografix.com/GPX/1/1" xmlns:xsi="http://www.w3.org/2001/XMLSchema-instance" xsi:schemaLocation="http://www.topografix.com/GPX/1/1 http://www.topografix.com/GPX/1/1/gpx.xsd" version="1.1" creator="VisuGPX - https://www.visugpx.com">
  <metadata>
    <name>Bords de Sèvre - Le Longeron - Boucle 9km</name>
    <desc><![CDATA[Bords de Sèvre en nocturne sous la pluie]]></desc>
  </metadata>
  <trk>
    <name><![CDATA[9bfi2042 on AllTrails]]></name>
    <trkseg>
      <trkpt lat="47.01098" lon="-1.05545">
        <ele>255</ele>
        <time>2019-11-15T18:20:42Z</time>
      </trkpt>
      <trkpt lat="47.01098" lon="-1.05549">
        <ele>255</ele>
        <time>2019-11-15T18:20:44Z</time>
      </trkpt>
      <trkpt lat="47.01095" lon="-1.0555">
        <ele>255</ele>
        <time>2019-11-15T18:20:47Z</time>
      </trkpt>
      <trkpt lat="47.01095" lon="-1.05565">
        <ele>255</ele>
        <time>2019-11-15T18:20:54Z</time>
      </trkpt>
      <trkpt lat="47.01088" lon="-1.05589">
        <ele>255</ele>
        <time>2019-11-15T18:20:59Z</time>
      </trkpt>
      <trkpt lat="47.01079" lon="-1.05614">
        <ele>256</ele>
        <time>2019-11-15T18:21:05Z</time>
      </trkpt>
      <trkpt lat="47.01062" lon="-1.05634">
        <ele>256</ele>
        <time>2019-11-15T18:21:11Z</time>
      </trkpt>
      <trkpt lat="47.01051" lon="-1.05659">
        <ele>255</ele>
        <time>2019-11-15T18:21:17Z</time>
      </trkpt>
      <trkpt lat="47.01044" lon="-1.05676">
        <ele>254</ele>
        <time>2019-11-15T18:21:22Z</time>
      </trkpt>
      <trkpt lat="47.01043" lon="-1.05676">
        <ele>254</ele>
        <time>2019-11-15T18:21:23Z</time>
      </trkpt>
      <trkpt lat="47.01039" lon="-1.05675">
        <ele>253</ele>
        <time>2019-11-15T18:21:26Z</time>
      </trkpt>
      <trkpt lat="47.01039" lon="-1.05674">
        <ele>252</ele>
        <time>2019-11-15T18:21:27Z</time>
      </trkpt>
      <trkpt lat="47.01038" lon="-1.05672">
        <ele>252</ele>
        <time>2019-11-15T18:21:28Z</time>
      </trkpt>
      <trkpt lat="47.01038" lon="-1.05669">
        <ele>251</ele>
        <time>2019-11-15T18:21:31Z</time>
      </trkpt>
      <trkpt lat="47.01039" lon="-1.05669">
        <ele>251</ele>
        <time>2019-11-15T18:21:32Z</time>
      </trkpt>
      <trkpt lat="47.01041" lon="-1.0566">
        <ele>251</ele>
        <time>2019-11-15T18:21:44Z</time>
      </trkpt>
      <trkpt lat="47.0104" lon="-1.05659">
        <ele>250</ele>
        <time>2019-11-15T18:21:46Z</time>
      </trkpt>
      <trkpt lat="47.01038" lon="-1.05661">
        <ele>250</ele>
        <time>2019-11-15T18:21:49Z</time>
      </trkpt>
      <trkpt lat="47.01031" lon="-1.05665">
        <ele>249</ele>
        <time>2019-11-15T18:21:54Z</time>
      </trkpt>
      <trkpt lat="47.01027" lon="-1.05668">
        <ele>247</ele>
        <time>2019-11-15T18:21:57Z</time>
      </trkpt>
      <trkpt lat="47.01024" lon="-1.05673">
        <ele>246</ele>
        <time>2019-11-15T18:22:00Z</time>
      </trkpt>
      <trkpt lat="47.01022" lon="-1.05674">
        <ele>246</ele>
        <time>2019-11-15T18:22:02Z</time>
      </trkpt>
      <trkpt lat="47.01019" lon="-1.05674">
        <ele>245</ele>
        <time>2019-11-15T18:22:04Z</time>
      </trkpt>
      <trkpt lat="47.01018" lon="-1.05675">
        <ele>245</ele>
        <time>2019-11-15T18:22:05Z</time>
      </trkpt>
      <trkpt lat="47.01016" lon="-1.05676">
        <ele>244</ele>
        <time>2019-11-15T18:22:07Z</time>
      </trkpt>
      <trkpt lat="47.01014" lon="-1.05677">
        <ele>243</ele>
        <time>2019-11-15T18:22:08Z</time>
      </trkpt>
      <trkpt lat="47.01012" lon="-1.05681">
        <ele>242</ele>
        <time>2019-11-15T18:22:10Z</time>
      </trkpt>
      <trkpt lat="47.01011" lon="-1.05681">
        <ele>242</ele>
        <time>2019-11-15T18:22:11Z</time>
      </trkpt>
      <trkpt lat="47.01009" lon="-1.0568">
        <ele>241</ele>
        <time>2019-11-15T18:22:13Z</time>
      </trkpt>
      <trkpt lat="47.01008" lon="-1.05677">
        <ele>240</ele>
        <time>2019-11-15T18:22:15Z</time>
      </trkpt>
      <trkpt lat="47.01006" lon="-1.05675">
        <ele>239</ele>
        <time>2019-11-15T18:22:17Z</time>
      </trkpt>
      <trkpt lat="47.01006" lon="-1.05675">
        <ele>238</ele>
        <time>2019-11-15T18:22:18Z</time>
      </trkpt>
      <trkpt lat="47.01006" lon="-1.05673">
        <ele>237</ele>
        <time>2019-11-15T18:22:20Z</time>
      </trkpt>
      <trkpt lat="47.01001" lon="-1.05674">
        <ele>236</ele>
        <time>2019-11-15T18:22:24Z</time>
      </trkpt>
      <trkpt lat="47.00987" lon="-1.05692">
        <ele>236</ele>
        <time>2019-11-15T18:22:34Z</time>
      </trkpt>
      <trkpt lat="47.00985" lon="-1.05695">
        <ele>235</ele>
        <time>2019-11-15T18:22:35Z</time>
      </trkpt>
      <trkpt lat="47.0098" lon="-1.057">
        <ele>234</ele>
        <time>2019-11-15T18:22:37Z</time>
      </trkpt>
      <trkpt lat="47.00975" lon="-1.05708">
        <ele>233</ele>
        <time>2019-11-15T18:22:40Z</time>
      </trkpt>
      <trkpt lat="47.0097" lon="-1.05714">
        <ele>232</ele>
        <time>2019-11-15T18:22:43Z</time>
      </trkpt>
      <trkpt lat="47.00968" lon="-1.05718">
        <ele>230</ele>
        <time>2019-11-15T18:22:45Z</time>
      </trkpt>
      <trkpt lat="47.00966" lon="-1.05722">
        <ele>229</ele>
        <time>2019-11-15T18:22:48Z</time>
      </trkpt>
      <trkpt lat="47.00964" lon="-1.05726">
        <ele>228</ele>
        <time>2019-11-15T18:22:51Z</time>
      </trkpt>
      <trkpt lat="47.00961" lon="-1.05728">
        <ele>227</ele>
        <time>2019-11-15T18:22:54Z</time>
      </trkpt>
      <trkpt lat="47.00958" lon="-1.0573">
        <ele>226</ele>
        <time>2019-11-15T18:22:58Z</time>
      </trkpt>
      <trkpt lat="47.00954" lon="-1.05734">
        <ele>225</ele>
        <time>2019-11-15T18:23:02Z</time>
      </trkpt>
      <trkpt lat="47.00952" lon="-1.05734">
        <ele>225</ele>
        <time>2019-11-15T18:23:03Z</time>
      </trkpt>
      <trkpt lat="47.00947" lon="-1.05733">
        <ele>224</ele>
        <time>2019-11-15T18:23:06Z</time>
      </trkpt>
      <trkpt lat="47.00944" lon="-1.05733">
        <ele>223</ele>
        <time>2019-11-15T18:23:08Z</time>
      </trkpt>
      <trkpt lat="47.00941" lon="-1.05732">
        <ele>223</ele>
        <time>2019-11-15T18:23:09Z</time>
      </trkpt>
      <trkpt lat="47.00933" lon="-1.05732">
        <ele>222</ele>
        <time>2019-11-15T18:23:13Z</time>
      </trkpt>
      <trkpt lat="47.00931" lon="-1.05735">
        <ele>220</ele>
        <time>2019-11-15T18:23:15Z</time>
      </trkpt>
      <trkpt lat="47.00929" lon="-1.05736">
        <ele>219</ele>
        <time>2019-11-15T18:23:17Z</time>
      </trkpt>
      <trkpt lat="47.0093" lon="-1.05736">
        <ele>219</ele>
        <time>2019-11-15T18:23:19Z</time>
      </trkpt>
      <trkpt lat="47.00931" lon="-1.05733">
        <ele>218</ele>
        <time>2019-11-15T18:23:20Z</time>
      </trkpt>
      <trkpt lat="47.00931" lon="-1.05731">
        <ele>218</ele>
        <time>2019-11-15T18:23:21Z</time>
      </trkpt>
      <trkpt lat="47.0093" lon="-1.05724">
        <ele>217</ele>
        <time>2019-11-15T18:23:24Z</time>
      </trkpt>
      <trkpt lat="47.0093" lon="-1.05724">
        <ele>217</ele>
        <time>2019-11-15T18:23:25Z</time>
      </trkpt>
      <trkpt lat="47.0093" lon="-1.05723">
        <ele>217</ele>
        <time>2019-11-15T18:23:27Z</time>
      </trkpt>
      <trkpt lat="47.00942" lon="-1.05707">
        <ele>218</ele>
        <time>2019-11-15T18:23:39Z</time>
      </trkpt>
      <trkpt lat="47.00943" lon="-1.05705">
        <ele>219</ele>
        <time>2019-11-15T18:23:40Z</time>
      </trkpt>
      <trkpt lat="47.00945" lon="-1.05697">
        <ele>220</ele>
        <time>2019-11-15T18:23:42Z</time>
      </trkpt>
      <trkpt lat="47.00946" lon="-1.05692">
        <ele>221</ele>
        <time>2019-11-15T18:23:44Z</time>
      </trkpt>
      <trkpt lat="47.0095" lon="-1.05685">
        <ele>222</ele>
        <time>2019-11-15T18:23:47Z</time>
      </trkpt>
      <trkpt lat="47.00953" lon="-1.0568">
        <ele>223</ele>
        <time>2019-11-15T18:23:49Z</time>
      </trkpt>
      <trkpt lat="47.00955" lon="-1.05678">
        <ele>223</ele>
        <time>2019-11-15T18:23:50Z</time>
      </trkpt>
      <trkpt lat="47.00957" lon="-1.05671">
        <ele>224</ele>
        <time>2019-11-15T18:23:52Z</time>
      </trkpt>
      <trkpt lat="47.00959" lon="-1.05665">
        <ele>226</ele>
        <time>2019-11-15T18:23:54Z</time>
      </trkpt>
      <trkpt lat="47.00963" lon="-1.0566">
        <ele>227</ele>
        <time>2019-11-15T18:23:56Z</time>
      </trkpt>
      <trkpt lat="47.00968" lon="-1.05654">
        <ele>228</ele>
        <time>2019-11-15T18:23:58Z</time>
      </trkpt>
      <trkpt lat="47.00972" lon="-1.05648">
        <ele>229</ele>
        <time>2019-11-15T18:24:01Z</time>
      </trkpt>
      <trkpt lat="47.00977" lon="-1.05637">
        <ele>230</ele>
        <time>2019-11-15T18:24:04Z</time>
      </trkpt>
      <trkpt lat="47.00984" lon="-1.05626">
        <ele>231</ele>
        <time>2019-11-15T18:24:07Z</time>
      </trkpt>
      <trkpt lat="47.0099" lon="-1.05614">
        <ele>232</ele>
        <time>2019-11-15T18:24:11Z</time>
      </trkpt>
      <trkpt lat="47.00994" lon="-1.05608">
        <ele>233</ele>
        <time>2019-11-15T18:24:13Z</time>
      </trkpt>
      <trkpt lat="47.00999" lon="-1.05599">
        <ele>235</ele>
        <time>2019-11-15T18:24:16Z</time>
      </trkpt>
      <trkpt lat="47.01002" lon="-1.05587">
        <ele>236</ele>
        <time>2019-11-15T18:24:20Z</time>
      </trkpt>
      <trkpt lat="47.01006" lon="-1.05579">
        <ele>238</ele>
        <time>2019-11-15T18:24:23Z</time>
      </trkpt>
      <trkpt lat="47.01008" lon="-1.05573">
        <ele>239</ele>
        <time>2019-11-15T18:24:25Z</time>
      </trkpt>
      <trkpt lat="47.01014" lon="-1.05565">
        <ele>240</ele>
        <time>2019-11-15T18:24:28Z</time>
      </trkpt>
      <trkpt lat="47.01016" lon="-1.05562">
        <ele>240</ele>
        <time>2019-11-15T18:24:29Z</time>
      </trkpt>
      <trkpt lat="47.01019" lon="-1.05551">
        <ele>241</ele>
        <time>2019-11-15T18:24:33Z</time>
      </trkpt>
      <trkpt lat="47.0102" lon="-1.05543">
        <ele>243</ele>
        <time>2019-11-15T18:24:36Z</time>
      </trkpt>
      <trkpt lat="47.0102" lon="-1.05541">
        <ele>243</ele>
        <time>2019-11-15T18:24:37Z</time>
      </trkpt>
      <trkpt lat="47.01021" lon="-1.05536">
        <ele>244</ele>
        <time>2019-11-15T18:24:39Z</time>
      </trkpt>
      <trkpt lat="47.01022" lon="-1.05529">
        <ele>245</ele>
        <time>2019-11-15T18:24:41Z</time>
      </trkpt>
      <trkpt lat="47.01022" lon="-1.05521">
        <ele>246</ele>
        <time>2019-11-15T18:24:44Z</time>
      </trkpt>
      <trkpt lat="47.01024" lon="-1.05514">
        <ele>247</ele>
        <time>2019-11-15T18:24:47Z</time>
      </trkpt>
      <trkpt lat="47.01025" lon="-1.0551">
        <ele>248</ele>
        <time>2019-11-15T18:24:49Z</time>
      </trkpt>
      <trkpt lat="47.01026" lon="-1.05506">
        <ele>248</ele>
        <time>2019-11-15T18:24:51Z</time>
      </trkpt>
      <trkpt lat="47.01028" lon="-1.05499">
        <ele>250</ele>
        <time>2019-11-15T18:24:55Z</time>
      </trkpt>
      <trkpt lat="47.01027" lon="-1.05492">
        <ele>251</ele>
        <time>2019-11-15T18:24:58Z</time>
      </trkpt>
      <trkpt lat="47.01027" lon="-1.05488">
        <ele>252</ele>
        <time>2019-11-15T18:25:01Z</time>
      </trkpt>
      <trkpt lat="47.01024" lon="-1.05483">
        <ele>253</ele>
        <time>2019-11-15T18:25:05Z</time>
      </trkpt>
      <trkpt lat="47.01014" lon="-1.05472">
        <ele>254</ele>
        <time>2019-11-15T18:25:11Z</time>
      </trkpt>
      <trkpt lat="47.01007" lon="-1.0546">
        <ele>255</ele>
        <time>2019-11-15T18:25:15Z</time>
      </trkpt>
      <trkpt lat="47.00995" lon="-1.05438">
        <ele>255</ele>
        <time>2019-11-15T18:25:23Z</time>
      </trkpt>
      <trkpt lat="47.00985" lon="-1.05422">
        <ele>256</ele>
        <time>2019-11-15T18:25:29Z</time>
      </trkpt>
      <trkpt lat="47.00975" lon="-1.05402">
        <ele>257</ele>
        <time>2019-11-15T18:25:38Z</time>
      </trkpt>
      <trkpt lat="47.0097" lon="-1.05388">
        <ele>258</ele>
        <time>2019-11-15T18:25:43Z</time>
      </trkpt>
      <trkpt lat="47.00967" lon="-1.0538">
        <ele>259</ele>
        <time>2019-11-15T18:25:46Z</time>
      </trkpt>
      <trkpt lat="47.00959" lon="-1.05362">
        <ele>260</ele>
        <time>2019-11-15T18:25:53Z</time>
      </trkpt>
      <trkpt lat="47.0096" lon="-1.05357">
        <ele>260</ele>
        <time>2019-11-15T18:25:55Z</time>
      </trkpt>
      <trkpt lat="47.00961" lon="-1.05354">
        <ele>260</ele>
        <time>2019-11-15T18:25:56Z</time>
      </trkpt>
      <trkpt lat="47.0097" lon="-1.05337">
        <ele>261</ele>
        <time>2019-11-15T18:26:02Z</time>
      </trkpt>
      <trkpt lat="47.0098" lon="-1.05313">
        <ele>261</ele>
        <time>2019-11-15T18:26:10Z</time>
      </trkpt>
      <trkpt lat="47.00992" lon="-1.05293">
        <ele>261</ele>
        <time>2019-11-15T18:26:18Z</time>
      </trkpt>
      <trkpt lat="47.01008" lon="-1.05275">
        <ele>262</ele>
        <time>2019-11-15T18:26:26Z</time>
      </trkpt>
      <trkpt lat="47.01023" lon="-1.0526">
        <ele>262</ele>
        <time>2019-11-15T18:26:34Z</time>
      </trkpt>
      <trkpt lat="47.01031" lon="-1.05251">
        <ele>262</ele>
        <time>2019-11-15T18:26:38Z</time>
      </trkpt>
      <trkpt lat="47.01046" lon="-1.05233">
        <ele>264</ele>
        <time>2019-11-15T18:26:46Z</time>
      </trkpt>
      <trkpt lat="47.01044" lon="-1.05207">
        <ele>264</ele>
        <time>2019-11-15T18:26:54Z</time>
      </trkpt>
      <trkpt lat="47.01039" lon="-1.0518">
        <ele>264</ele>
        <time>2019-11-15T18:27:01Z</time>
      </trkpt>
      <trkpt lat="47.01035" lon="-1.05151">
        <ele>264</ele>
        <time>2019-11-15T18:27:08Z</time>
      </trkpt>
      <trkpt lat="47.01033" lon="-1.05121">
        <ele>263</ele>
        <time>2019-11-15T18:27:16Z</time>
      </trkpt>
      <trkpt lat="47.01032" lon="-1.05118">
        <ele>263</ele>
        <time>2019-11-15T18:27:17Z</time>
      </trkpt>
      <trkpt lat="47.01029" lon="-1.05089">
        <ele>262</ele>
        <time>2019-11-15T18:27:25Z</time>
      </trkpt>
      <trkpt lat="47.01022" lon="-1.05063">
        <ele>262</ele>
        <time>2019-11-15T18:27:33Z</time>
      </trkpt>
      <trkpt lat="47.01014" lon="-1.05036">
        <ele>262</ele>
        <time>2019-11-15T18:27:42Z</time>
      </trkpt>
      <trkpt lat="47.01007" lon="-1.05009">
        <ele>263</ele>
        <time>2019-11-15T18:27:50Z</time>
      </trkpt>
      <trkpt lat="47.01001" lon="-1.04983">
        <ele>263</ele>
        <time>2019-11-15T18:27:58Z</time>
      </trkpt>
      <trkpt lat="47.00995" lon="-1.04955">
        <ele>262</ele>
        <time>2019-11-15T18:28:06Z</time>
      </trkpt>
      <trkpt lat="47.00994" lon="-1.04951">
        <ele>262</ele>
        <time>2019-11-15T18:28:07Z</time>
      </trkpt>
      <trkpt lat="47.0099" lon="-1.04925">
        <ele>262</ele>
        <time>2019-11-15T18:28:14Z</time>
      </trkpt>
      <trkpt lat="47.0099" lon="-1.04921">
        <ele>262</ele>
        <time>2019-11-15T18:28:15Z</time>
      </trkpt>
      <trkpt lat="47.0099" lon="-1.04898">
        <ele>260</ele>
        <time>2019-11-15T18:28:21Z</time>
      </trkpt>
      <trkpt lat="47.00989" lon="-1.04877">
        <ele>259</ele>
        <time>2019-11-15T18:28:26Z</time>
      </trkpt>
      <trkpt lat="47.00986" lon="-1.04847">
        <ele>258</ele>
        <time>2019-11-15T18:28:34Z</time>
      </trkpt>
      <trkpt lat="47.00983" lon="-1.0482">
        <ele>258</ele>
        <time>2019-11-15T18:28:42Z</time>
      </trkpt>
      <trkpt lat="47.00978" lon="-1.04795">
        <ele>258</ele>
        <time>2019-11-15T18:28:49Z</time>
      </trkpt>
      <trkpt lat="47.00973" lon="-1.04793">
        <ele>258</ele>
        <time>2019-11-15T18:28:51Z</time>
      </trkpt>
      <trkpt lat="47.00967" lon="-1.04797">
        <ele>258</ele>
        <time>2019-11-15T18:28:54Z</time>
      </trkpt>
      <trkpt lat="47.00955" lon="-1.04806">
        <ele>257</ele>
        <time>2019-11-15T18:29:01Z</time>
      </trkpt>
      <trkpt lat="47.00949" lon="-1.04813">
        <ele>256</ele>
        <time>2019-11-15T18:29:04Z</time>
      </trkpt>
      <trkpt lat="47.00931" lon="-1.04826">
        <ele>255</ele>
        <time>2019-11-15T18:29:11Z</time>
      </trkpt>
      <trkpt lat="47.00925" lon="-1.04829">
        <ele>255</ele>
        <time>2019-11-15T18:29:13Z</time>
      </trkpt>
      <trkpt lat="47.00914" lon="-1.04835">
        <ele>254</ele>
        <time>2019-11-15T18:29:17Z</time>
      </trkpt>
      <trkpt lat="47.00908" lon="-1.04839">
        <ele>253</ele>
        <time>2019-11-15T18:29:19Z</time>
      </trkpt>
      <trkpt lat="47.00899" lon="-1.04844">
        <ele>251</ele>
        <time>2019-11-15T18:29:22Z</time>
      </trkpt>
      <trkpt lat="47.00888" lon="-1.04848">
        <ele>250</ele>
        <time>2019-11-15T18:29:26Z</time>
      </trkpt>
      <trkpt lat="47.00874" lon="-1.04853">
        <ele>249</ele>
        <time>2019-11-15T18:29:31Z</time>
      </trkpt>
      <trkpt lat="47.00864" lon="-1.04858">
        <ele>248</ele>
        <time>2019-11-15T18:29:35Z</time>
      </trkpt>
      <trkpt lat="47.00858" lon="-1.04859">
        <ele>247</ele>
        <time>2019-11-15T18:29:37Z</time>
      </trkpt>
      <trkpt lat="47.00847" lon="-1.04855">
        <ele>245</ele>
        <time>2019-11-15T18:29:41Z</time>
      </trkpt>
      <trkpt lat="47.00843" lon="-1.04851">
        <ele>245</ele>
        <time>2019-11-15T18:29:43Z</time>
      </trkpt>
      <trkpt lat="47.00839" lon="-1.04844">
        <ele>244</ele>
        <time>2019-11-15T18:29:45Z</time>
      </trkpt>
      <trkpt lat="47.00831" lon="-1.04819">
        <ele>244</ele>
        <time>2019-11-15T18:29:52Z</time>
      </trkpt>
      <trkpt lat="47.00827" lon="-1.04791">
        <ele>244</ele>
        <time>2019-11-15T18:30:00Z</time>
      </trkpt>
      <trkpt lat="47.00825" lon="-1.04762">
        <ele>244</ele>
        <time>2019-11-15T18:30:07Z</time>
      </trkpt>
      <trkpt lat="47.00823" lon="-1.04732">
        <ele>243</ele>
        <time>2019-11-15T18:30:14Z</time>
      </trkpt>
      <trkpt lat="47.00822" lon="-1.04722">
        <ele>242</ele>
        <time>2019-11-15T18:30:17Z</time>
      </trkpt>
      <trkpt lat="47.00817" lon="-1.04705">
        <ele>240</ele>
        <time>2019-11-15T18:30:21Z</time>
      </trkpt>
      <trkpt lat="47.00814" lon="-1.04676">
        <ele>240</ele>
        <time>2019-11-15T18:30:28Z</time>
      </trkpt>
      <trkpt lat="47.00814" lon="-1.04672">
        <ele>239</ele>
        <time>2019-11-15T18:30:29Z</time>
      </trkpt>
      <trkpt lat="47.00814" lon="-1.04658">
        <ele>238</ele>
        <time>2019-11-15T18:30:32Z</time>
      </trkpt>
      <trkpt lat="47.00814" lon="-1.0465">
        <ele>237</ele>
        <time>2019-11-15T18:30:34Z</time>
      </trkpt>
      <trkpt lat="47.00814" lon="-1.04642">
        <ele>235</ele>
        <time>2019-11-15T18:30:36Z</time>
      </trkpt>
      <trkpt lat="47.00813" lon="-1.04636">
        <ele>234</ele>
        <time>2019-11-15T18:30:38Z</time>
      </trkpt>
      <trkpt lat="47.00812" lon="-1.04633">
        <ele>234</ele>
        <time>2019-11-15T18:30:39Z</time>
      </trkpt>
      <trkpt lat="47.00809" lon="-1.0463">
        <ele>233</ele>
        <time>2019-11-15T18:30:41Z</time>
      </trkpt>
      <trkpt lat="47.00808" lon="-1.04628">
        <ele>232</ele>
        <time>2019-11-15T18:30:42Z</time>
      </trkpt>
      <trkpt lat="47.00808" lon="-1.04626">
        <ele>231</ele>
        <time>2019-11-15T18:30:43Z</time>
      </trkpt>
      <trkpt lat="47.00807" lon="-1.04624">
        <ele>230</ele>
        <time>2019-11-15T18:30:44Z</time>
      </trkpt>
      <trkpt lat="47.00806" lon="-1.04622">
        <ele>229</ele>
        <time>2019-11-15T18:30:45Z</time>
      </trkpt>
      <trkpt lat="47.00804" lon="-1.0462">
        <ele>227</ele>
        <time>2019-11-15T18:30:47Z</time>
      </trkpt>
      <trkpt lat="47.00804" lon="-1.04619">
        <ele>227</ele>
        <time>2019-11-15T18:30:48Z</time>
      </trkpt>
      <trkpt lat="47.00804" lon="-1.04617">
        <ele>226</ele>
        <time>2019-11-15T18:30:49Z</time>
      </trkpt>
      <trkpt lat="47.00802" lon="-1.04612">
        <ele>225</ele>
        <time>2019-11-15T18:30:51Z</time>
      </trkpt>
      <trkpt lat="47.00801" lon="-1.04608">
        <ele>223</ele>
        <time>2019-11-15T18:30:53Z</time>
      </trkpt>
      <trkpt lat="47.00798" lon="-1.04602">
        <ele>221</ele>
        <time>2019-11-15T18:30:55Z</time>
      </trkpt>
      <trkpt lat="47.00797" lon="-1.04598">
        <ele>220</ele>
        <time>2019-11-15T18:30:57Z</time>
      </trkpt>
      <trkpt lat="47.00797" lon="-1.04594">
        <ele>219</ele>
        <time>2019-11-15T18:30:59Z</time>
      </trkpt>
      <trkpt lat="47.00793" lon="-1.04586">
        <ele>217</ele>
        <time>2019-11-15T18:31:02Z</time>
      </trkpt>
      <trkpt lat="47.00791" lon="-1.04579">
        <ele>216</ele>
        <time>2019-11-15T18:31:04Z</time>
      </trkpt>
      <trkpt lat="47.00789" lon="-1.04577">
        <ele>216</ele>
        <time>2019-11-15T18:31:05Z</time>
      </trkpt>
      <trkpt lat="47.00778" lon="-1.04573">
        <ele>215</ele>
        <time>2019-11-15T18:31:09Z</time>
      </trkpt>
      <trkpt lat="47.00765" lon="-1.04572">
        <ele>215</ele>
        <time>2019-11-15T18:31:13Z</time>
      </trkpt>
      <trkpt lat="47.00746" lon="-1.0457">
        <ele>215</ele>
        <time>2019-11-15T18:31:20Z</time>
      </trkpt>
      <trkpt lat="47.00745" lon="-1.04569">
        <ele>215</ele>
        <time>2019-11-15T18:31:21Z</time>
      </trkpt>
      <trkpt lat="47.00732" lon="-1.04549">
        <ele>215</ele>
        <time>2019-11-15T18:31:28Z</time>
      </trkpt>
      <trkpt lat="47.00721" lon="-1.04523">
        <ele>214</ele>
        <time>2019-11-15T18:31:36Z</time>
      </trkpt>
      <trkpt lat="47.00714" lon="-1.04496">
        <ele>214</ele>
        <time>2019-11-15T18:31:44Z</time>
      </trkpt>
      <trkpt lat="47.00713" lon="-1.04481">
        <ele>212</ele>
        <time>2019-11-15T18:31:48Z</time>
      </trkpt>
      <trkpt lat="47.00708" lon="-1.04451">
        <ele>213</ele>
        <time>2019-11-15T18:31:55Z</time>
      </trkpt>
      <trkpt lat="47.007" lon="-1.04433">
        <ele>213</ele>
        <time>2019-11-15T18:32:02Z</time>
      </trkpt>
      <trkpt lat="47.00692" lon="-1.04417">
        <ele>215</ele>
        <time>2019-11-15T18:32:07Z</time>
      </trkpt>
      <trkpt lat="47.0069" lon="-1.04414">
        <ele>215</ele>
        <time>2019-11-15T18:32:09Z</time>
      </trkpt>
      <trkpt lat="47.00689" lon="-1.04413">
        <ele>216</ele>
        <time>2019-11-15T18:32:11Z</time>
      </trkpt>
      <trkpt lat="47.00687" lon="-1.04409">
        <ele>217</ele>
        <time>2019-11-15T18:32:14Z</time>
      </trkpt>
      <trkpt lat="47.00685" lon="-1.04407">
        <ele>217</ele>
        <time>2019-11-15T18:32:15Z</time>
      </trkpt>
      <trkpt lat="47.0068" lon="-1.04399">
        <ele>218</ele>
        <time>2019-11-15T18:32:18Z</time>
      </trkpt>
      <trkpt lat="47.00667" lon="-1.04377">
        <ele>218</ele>
        <time>2019-11-15T18:32:25Z</time>
      </trkpt>
      <trkpt lat="47.0065" lon="-1.04358">
        <ele>218</ele>
        <time>2019-11-15T18:32:32Z</time>
      </trkpt>
      <trkpt lat="47.00635" lon="-1.04338">
        <ele>218</ele>
        <time>2019-11-15T18:32:39Z</time>
      </trkpt>
      <trkpt lat="47.00625" lon="-1.04315">
        <ele>219</ele>
        <time>2019-11-15T18:32:46Z</time>
      </trkpt>
      <trkpt lat="47.00611" lon="-1.04299">
        <ele>219</ele>
        <time>2019-11-15T18:32:52Z</time>
      </trkpt>
      <trkpt lat="47.00593" lon="-1.04295">
        <ele>217</ele>
        <time>2019-11-15T18:32:58Z</time>
      </trkpt>
      <trkpt lat="47.0059" lon="-1.04294">
        <ele>217</ele>
        <time>2019-11-15T18:32:59Z</time>
      </trkpt>
      <trkpt lat="47.00575" lon="-1.04293">
        <ele>216</ele>
        <time>2019-11-15T18:33:04Z</time>
      </trkpt>
      <trkpt lat="47.00564" lon="-1.04292">
        <ele>215</ele>
        <time>2019-11-15T18:33:08Z</time>
      </trkpt>
      <trkpt lat="47.00547" lon="-1.04288">
        <ele>213</ele>
        <time>2019-11-15T18:33:14Z</time>
      </trkpt>
      <trkpt lat="47.0054" lon="-1.04286">
        <ele>212</ele>
        <time>2019-11-15T18:33:17Z</time>
      </trkpt>
      <trkpt lat="47.00533" lon="-1.04284">
        <ele>211</ele>
        <time>2019-11-15T18:33:20Z</time>
      </trkpt>
      <trkpt lat="47.00526" lon="-1.0428">
        <ele>210</ele>
        <time>2019-11-15T18:33:23Z</time>
      </trkpt>
      <trkpt lat="47.00516" lon="-1.04274">
        <ele>209</ele>
        <time>2019-11-15T18:33:26Z</time>
      </trkpt>
      <trkpt lat="47.00497" lon="-1.04262">
        <ele>208</ele>
        <time>2019-11-15T18:33:32Z</time>
      </trkpt>
      <trkpt lat="47.00478" lon="-1.0425">
        <ele>208</ele>
        <time>2019-11-15T18:33:38Z</time>
      </trkpt>
      <trkpt lat="47.00463" lon="-1.04237">
        <ele>209</ele>
        <time>2019-11-15T18:33:44Z</time>
      </trkpt>
      <trkpt lat="47.00459" lon="-1.04233">
        <ele>209</ele>
        <time>2019-11-15T18:33:47Z</time>
      </trkpt>
      <trkpt lat="47.00457" lon="-1.04233">
        <ele>209</ele>
        <time>2019-11-15T18:33:50Z</time>
      </trkpt>
      <trkpt lat="47.0044" lon="-1.04219">
        <ele>208</ele>
        <time>2019-11-15T18:34:02Z</time>
      </trkpt>
      <trkpt lat="47.00437" lon="-1.04214">
        <ele>207</ele>
        <time>2019-11-15T18:34:04Z</time>
      </trkpt>
      <trkpt lat="47.00433" lon="-1.04207">
        <ele>206</ele>
        <time>2019-11-15T18:34:06Z</time>
      </trkpt>
      <trkpt lat="47.00424" lon="-1.04184">
        <ele>206</ele>
        <time>2019-11-15T18:34:13Z</time>
      </trkpt>
      <trkpt lat="47.00421" lon="-1.04171">
        <ele>207</ele>
        <time>2019-11-15T18:34:18Z</time>
      </trkpt>
      <trkpt lat="47.00418" lon="-1.04162">
        <ele>208</ele>
        <time>2019-11-15T18:34:22Z</time>
      </trkpt>
      <trkpt lat="47.00417" lon="-1.04152">
        <ele>209</ele>
        <time>2019-11-15T18:34:25Z</time>
      </trkpt>
      <trkpt lat="47.00417" lon="-1.04142">
        <ele>211</ele>
        <time>2019-11-15T18:34:28Z</time>
      </trkpt>
      <trkpt lat="47.00418" lon="-1.04135">
        <ele>212</ele>
        <time>2019-11-15T18:34:30Z</time>
      </trkpt>
      <trkpt lat="47.00419" lon="-1.04129">
        <ele>213</ele>
        <time>2019-11-15T18:34:32Z</time>
      </trkpt>
      <trkpt lat="47.00424" lon="-1.04116">
        <ele>214</ele>
        <time>2019-11-15T18:34:36Z</time>
      </trkpt>
      <trkpt lat="47.00431" lon="-1.041">
        <ele>215</ele>
        <time>2019-11-15T18:34:41Z</time>
      </trkpt>
      <trkpt lat="47.00438" lon="-1.04076">
        <ele>216</ele>
        <time>2019-11-15T18:34:48Z</time>
      </trkpt>
      <trkpt lat="47.00449" lon="-1.04051">
        <ele>218</ele>
        <time>2019-11-15T18:34:56Z</time>
      </trkpt>
      <trkpt lat="47.0045" lon="-1.04024">
        <ele>218</ele>
        <time>2019-11-15T18:35:05Z</time>
      </trkpt>
      <trkpt lat="47.00451" lon="-1.04002">
        <ele>218</ele>
        <time>2019-11-15T18:35:12Z</time>
      </trkpt>
      <trkpt lat="47.00454" lon="-1.03997">
        <ele>219</ele>
        <time>2019-11-15T18:35:15Z</time>
      </trkpt>
      <trkpt lat="47.00466" lon="-1.03999">
        <ele>217</ele>
        <time>2019-11-15T18:35:22Z</time>
      </trkpt>
      <trkpt lat="47.0047" lon="-1.03999">
        <ele>216</ele>
        <time>2019-11-15T18:35:24Z</time>
      </trkpt>
      <trkpt lat="47.00476" lon="-1.04001">
        <ele>214</ele>
        <time>2019-11-15T18:35:27Z</time>
      </trkpt>
      <trkpt lat="47.00484" lon="-1.04002">
        <ele>213</ele>
        <time>2019-11-15T18:35:30Z</time>
      </trkpt>
      <trkpt lat="47.00492" lon="-1.04005">
        <ele>212</ele>
        <time>2019-11-15T18:35:33Z</time>
      </trkpt>
      <trkpt lat="47.00499" lon="-1.04007">
        <ele>211</ele>
        <time>2019-11-15T18:35:36Z</time>
      </trkpt>
      <trkpt lat="47.00507" lon="-1.04009">
        <ele>210</ele>
        <time>2019-11-15T18:35:39Z</time>
      </trkpt>
      <trkpt lat="47.00514" lon="-1.04006">
        <ele>210</ele>
        <time>2019-11-15T18:35:41Z</time>
      </trkpt>
      <trkpt lat="47.00521" lon="-1.03992">
        <ele>209</ele>
        <time>2019-11-15T18:35:45Z</time>
      </trkpt>
      <trkpt lat="47.00521" lon="-1.03979">
        <ele>207</ele>
        <time>2019-11-15T18:35:49Z</time>
      </trkpt>
      <trkpt lat="47.00521" lon="-1.03952">
        <ele>207</ele>
        <time>2019-11-15T18:35:57Z</time>
      </trkpt>
      <trkpt lat="47.0052" lon="-1.03925">
        <ele>207</ele>
        <time>2019-11-15T18:36:03Z</time>
      </trkpt>
      <trkpt lat="47.00519" lon="-1.03917">
        <ele>206</ele>
        <time>2019-11-15T18:36:05Z</time>
      </trkpt>
      <trkpt lat="47.00507" lon="-1.03897">
        <ele>206</ele>
        <time>2019-11-15T18:36:12Z</time>
      </trkpt>
      <trkpt lat="47.00496" lon="-1.03872">
        <ele>206</ele>
        <time>2019-11-15T18:36:19Z</time>
      </trkpt>
      <trkpt lat="47.00488" lon="-1.03848">
        <ele>206</ele>
        <time>2019-11-15T18:36:25Z</time>
      </trkpt>
      <trkpt lat="47.00483" lon="-1.0382">
        <ele>206</ele>
        <time>2019-11-15T18:36:32Z</time>
      </trkpt>
      <trkpt lat="47.00482" lon="-1.03803">
        <ele>206</ele>
        <time>2019-11-15T18:36:37Z</time>
      </trkpt>
      <trkpt lat="47.00478" lon="-1.03775">
        <ele>206</ele>
        <time>2019-11-15T18:36:45Z</time>
      </trkpt>
      <trkpt lat="47.00467" lon="-1.03754">
        <ele>207</ele>
        <time>2019-11-15T18:36:53Z</time>
      </trkpt>
      <trkpt lat="47.00455" lon="-1.03751">
        <ele>207</ele>
        <time>2019-11-15T18:36:59Z</time>
      </trkpt>
      <trkpt lat="47.00446" lon="-1.03727">
        <ele>207</ele>
        <time>2019-11-15T18:37:06Z</time>
      </trkpt>
      <trkpt lat="47.00439" lon="-1.03701">
        <ele>206</ele>
        <time>2019-11-15T18:37:13Z</time>
      </trkpt>
      <trkpt lat="47.0043" lon="-1.03687">
        <ele>206</ele>
        <time>2019-11-15T18:37:19Z</time>
      </trkpt>
      <trkpt lat="47.00421" lon="-1.03661">
        <ele>206</ele>
        <time>2019-11-15T18:37:27Z</time>
      </trkpt>
      <trkpt lat="47.00417" lon="-1.03655">
        <ele>206</ele>
        <time>2019-11-15T18:37:30Z</time>
      </trkpt>
      <trkpt lat="47.00399" lon="-1.03651">
        <ele>207</ele>
        <time>2019-11-15T18:37:37Z</time>
      </trkpt>
      <trkpt lat="47.00394" lon="-1.03649">
        <ele>208</ele>
        <time>2019-11-15T18:37:39Z</time>
      </trkpt>
      <trkpt lat="47.00375" lon="-1.03649">
        <ele>208</ele>
        <time>2019-11-15T18:37:47Z</time>
      </trkpt>
      <trkpt lat="47.00371" lon="-1.03649">
        <ele>209</ele>
        <time>2019-11-15T18:37:49Z</time>
      </trkpt>
      <trkpt lat="47.00365" lon="-1.03645">
        <ele>210</ele>
        <time>2019-11-15T18:37:53Z</time>
      </trkpt>
      <trkpt lat="47.00362" lon="-1.03644">
        <ele>210</ele>
        <time>2019-11-15T18:37:57Z</time>
      </trkpt>
      <trkpt lat="47.00361" lon="-1.03639">
        <ele>211</ele>
        <time>2019-11-15T18:38:00Z</time>
      </trkpt>
      <trkpt lat="47.00362" lon="-1.03624">
        <ele>211</ele>
        <time>2019-11-15T18:38:05Z</time>
      </trkpt>
      <trkpt lat="47.00365" lon="-1.03617">
        <ele>211</ele>
        <time>2019-11-15T18:38:10Z</time>
      </trkpt>
      <trkpt lat="47.00366" lon="-1.03616">
        <ele>211</ele>
        <time>2019-11-15T18:38:23Z</time>
      </trkpt>
      <trkpt lat="47.00366" lon="-1.03605">
        <ele>211</ele>
        <time>2019-11-15T18:38:28Z</time>
      </trkpt>
      <trkpt lat="47.00365" lon="-1.03599">
        <ele>211</ele>
        <time>2019-11-15T18:38:32Z</time>
      </trkpt>
      <trkpt lat="47.00364" lon="-1.03599">
        <ele>210</ele>
        <time>2019-11-15T18:38:34Z</time>
      </trkpt>
      <trkpt lat="47.00364" lon="-1.0359">
        <ele>210</ele>
        <time>2019-11-15T18:38:40Z</time>
      </trkpt>
      <trkpt lat="47.00364" lon="-1.03572">
        <ele>210</ele>
        <time>2019-11-15T18:38:45Z</time>
      </trkpt>
      <trkpt lat="47.0036" lon="-1.03544">
        <ele>209</ele>
        <time>2019-11-15T18:38:51Z</time>
      </trkpt>
      <trkpt lat="47.00354" lon="-1.03515">
        <ele>210</ele>
        <time>2019-11-15T18:38:57Z</time>
      </trkpt>
      <trkpt lat="47.00349" lon="-1.0349">
        <ele>210</ele>
        <time>2019-11-15T18:39:03Z</time>
      </trkpt>
      <trkpt lat="47.00347" lon="-1.03461">
        <ele>210</ele>
        <time>2019-11-15T18:39:10Z</time>
      </trkpt>
      <trkpt lat="47.00345" lon="-1.03437">
        <ele>211</ele>
        <time>2019-11-15T18:39:17Z</time>
      </trkpt>
      <trkpt lat="47.00343" lon="-1.03407">
        <ele>212</ele>
        <time>2019-11-15T18:39:25Z</time>
      </trkpt>
      <trkpt lat="47.00348" lon="-1.03382">
        <ele>211</ele>
        <time>2019-11-15T18:39:33Z</time>
      </trkpt>
      <trkpt lat="47.00363" lon="-1.03362">
        <ele>210</ele>
        <time>2019-11-15T18:39:40Z</time>
      </trkpt>
      <trkpt lat="47.00373" lon="-1.03349">
        <ele>210</ele>
        <time>2019-11-15T18:39:45Z</time>
      </trkpt>
      <trkpt lat="47.00385" lon="-1.03326">
        <ele>210</ele>
        <time>2019-11-15T18:39:54Z</time>
      </trkpt>
      <trkpt lat="47.00388" lon="-1.03297">
        <ele>209</ele>
        <time>2019-11-15T18:40:02Z</time>
      </trkpt>
      <trkpt lat="47.00388" lon="-1.03293">
        <ele>209</ele>
        <time>2019-11-15T18:40:03Z</time>
      </trkpt>
      <trkpt lat="47.0039" lon="-1.0328">
        <ele>209</ele>
        <time>2019-11-15T18:40:07Z</time>
      </trkpt>
      <trkpt lat="47.00397" lon="-1.03256">
        <ele>209</ele>
        <time>2019-11-15T18:40:16Z</time>
      </trkpt>
      <trkpt lat="47.00404" lon="-1.03229">
        <ele>209</ele>
        <time>2019-11-15T18:40:23Z</time>
      </trkpt>
      <trkpt lat="47.00405" lon="-1.03224">
        <ele>209</ele>
        <time>2019-11-15T18:40:24Z</time>
      </trkpt>
      <trkpt lat="47.00408" lon="-1.03212">
        <ele>209</ele>
        <time>2019-11-15T18:40:27Z</time>
      </trkpt>
      <trkpt lat="47.00409" lon="-1.03209">
        <ele>209</ele>
        <time>2019-11-15T18:40:28Z</time>
      </trkpt>
      <trkpt lat="47.00409" lon="-1.03188">
        <ele>209</ele>
        <time>2019-11-15T18:40:35Z</time>
      </trkpt>
      <trkpt lat="47.00408" lon="-1.03161">
        <ele>209</ele>
        <time>2019-11-15T18:40:41Z</time>
      </trkpt>
      <trkpt lat="47.00407" lon="-1.03133">
        <ele>210</ele>
        <time>2019-11-15T18:40:47Z</time>
      </trkpt>
      <trkpt lat="47.00407" lon="-1.03121">
        <ele>210</ele>
        <time>2019-11-15T18:40:50Z</time>
      </trkpt>
      <trkpt lat="47.00407" lon="-1.03118">
        <ele>210</ele>
        <time>2019-11-15T18:40:51Z</time>
      </trkpt>
      <trkpt lat="47.00408" lon="-1.03089">
        <ele>211</ele>
        <time>2019-11-15T18:41:00Z</time>
      </trkpt>
      <trkpt lat="47.00406" lon="-1.03078">
        <ele>211</ele>
        <time>2019-11-15T18:41:03Z</time>
      </trkpt>
      <trkpt lat="47.00405" lon="-1.03071">
        <ele>211</ele>
        <time>2019-11-15T18:41:06Z</time>
      </trkpt>
      <trkpt lat="47.00404" lon="-1.0305">
        <ele>210</ele>
        <time>2019-11-15T18:41:12Z</time>
      </trkpt>
      <trkpt lat="47.00404" lon="-1.03038">
        <ele>210</ele>
        <time>2019-11-15T18:41:15Z</time>
      </trkpt>
      <trkpt lat="47.00405" lon="-1.0301">
        <ele>209</ele>
        <time>2019-11-15T18:41:23Z</time>
      </trkpt>
      <trkpt lat="47.00405" lon="-1.02993">
        <ele>209</ele>
        <time>2019-11-15T18:41:26Z</time>
      </trkpt>
      <trkpt lat="47.004" lon="-1.02969">
        <ele>209</ele>
        <time>2019-11-15T18:41:29Z</time>
      </trkpt>
      <trkpt lat="47.00397" lon="-1.02939">
        <ele>209</ele>
        <time>2019-11-15T18:41:35Z</time>
      </trkpt>
      <trkpt lat="47.00399" lon="-1.02909">
        <ele>208</ele>
        <time>2019-11-15T18:41:42Z</time>
      </trkpt>
      <trkpt lat="47.00399" lon="-1.02901">
        <ele>207</ele>
        <time>2019-11-15T18:41:44Z</time>
      </trkpt>
      <trkpt lat="47.00399" lon="-1.02874">
        <ele>207</ele>
        <time>2019-11-15T18:41:50Z</time>
      </trkpt>
      <trkpt lat="47.00396" lon="-1.02845">
        <ele>206</ele>
        <time>2019-11-15T18:41:57Z</time>
      </trkpt>
      <trkpt lat="47.00395" lon="-1.02838">
        <ele>206</ele>
        <time>2019-11-15T18:41:59Z</time>
      </trkpt>
      <trkpt lat="47.00387" lon="-1.02813">
        <ele>206</ele>
        <time>2019-11-15T18:42:06Z</time>
      </trkpt>
      <trkpt lat="47.00382" lon="-1.02789">
        <ele>206</ele>
        <time>2019-11-15T18:42:14Z</time>
      </trkpt>
      <trkpt lat="47.00381" lon="-1.02779">
        <ele>206</ele>
        <time>2019-11-15T18:42:18Z</time>
      </trkpt>
      <trkpt lat="47.00381" lon="-1.02769">
        <ele>206</ele>
        <time>2019-11-15T18:42:21Z</time>
      </trkpt>
      <trkpt lat="47.00382" lon="-1.02748">
        <ele>206</ele>
        <time>2019-11-15T18:42:27Z</time>
      </trkpt>
      <trkpt lat="47.00383" lon="-1.02738">
        <ele>206</ele>
        <time>2019-11-15T18:42:30Z</time>
      </trkpt>
      <trkpt lat="47.00384" lon="-1.0271">
        <ele>206</ele>
        <time>2019-11-15T18:42:38Z</time>
      </trkpt>
      <trkpt lat="47.00385" lon="-1.02689">
        <ele>206</ele>
        <time>2019-11-15T18:42:43Z</time>
      </trkpt>
      <trkpt lat="47.00385" lon="-1.02676">
        <ele>206</ele>
        <time>2019-11-15T18:42:47Z</time>
      </trkpt>
      <trkpt lat="47.00381" lon="-1.02658">
        <ele>206</ele>
        <time>2019-11-15T18:42:55Z</time>
      </trkpt>
      <trkpt lat="47.0038" lon="-1.02654">
        <ele>206</ele>
        <time>2019-11-15T18:42:57Z</time>
      </trkpt>
      <trkpt lat="47.0038" lon="-1.02649">
        <ele>205</ele>
        <time>2019-11-15T18:42:59Z</time>
      </trkpt>
      <trkpt lat="47.0038" lon="-1.02645">
        <ele>206</ele>
        <time>2019-11-15T18:43:02Z</time>
      </trkpt>
      <trkpt lat="47.00383" lon="-1.02637">
        <ele>206</ele>
        <time>2019-11-15T18:43:05Z</time>
      </trkpt>
      <trkpt lat="47.00386" lon="-1.02617">
        <ele>206</ele>
        <time>2019-11-15T18:43:10Z</time>
      </trkpt>
      <trkpt lat="47.00389" lon="-1.02598">
        <ele>206</ele>
        <time>2019-11-15T18:43:15Z</time>
      </trkpt>
      <trkpt lat="47.00389" lon="-1.02569">
        <ele>206</ele>
        <time>2019-11-15T18:43:23Z</time>
      </trkpt>
      <trkpt lat="47.0039" lon="-1.0254">
        <ele>207</ele>
        <time>2019-11-15T18:43:31Z</time>
      </trkpt>
      <trkpt lat="47.00389" lon="-1.02532">
        <ele>207</ele>
        <time>2019-11-15T18:43:33Z</time>
      </trkpt>
      <trkpt lat="47.0039" lon="-1.02508">
        <ele>208</ele>
        <time>2019-11-15T18:43:39Z</time>
      </trkpt>
      <trkpt lat="47.00391" lon="-1.02485">
        <ele>210</ele>
        <time>2019-11-15T18:43:47Z</time>
      </trkpt>
      <trkpt lat="47.0039" lon="-1.02477">
        <ele>211</ele>
        <time>2019-11-15T18:43:50Z</time>
      </trkpt>
      <trkpt lat="47.00389" lon="-1.02469">
        <ele>212</ele>
        <time>2019-11-15T18:43:53Z</time>
      </trkpt>
      <trkpt lat="47.00388" lon="-1.02463">
        <ele>212</ele>
        <time>2019-11-15T18:43:55Z</time>
      </trkpt>
      <trkpt lat="47.00387" lon="-1.02451">
        <ele>213</ele>
        <time>2019-11-15T18:43:59Z</time>
      </trkpt>
      <trkpt lat="47.00387" lon="-1.02451">
        <ele>213</ele>
        <time>2019-11-15T18:44:01Z</time>
      </trkpt>
      <trkpt lat="47.00384" lon="-1.0245">
        <ele>213</ele>
        <time>2019-11-15T18:44:02Z</time>
      </trkpt>
      <trkpt lat="47.00378" lon="-1.02442">
        <ele>213</ele>
        <time>2019-11-15T18:44:08Z</time>
      </trkpt>
      <trkpt lat="47.00379" lon="-1.02445">
        <ele>213</ele>
        <time>2019-11-15T18:44:10Z</time>
      </trkpt>
      <trkpt lat="47.00383" lon="-1.02447">
        <ele>213</ele>
        <time>2019-11-15T18:44:13Z</time>
      </trkpt>
      <trkpt lat="47.00386" lon="-1.02443">
        <ele>213</ele>
        <time>2019-11-15T18:44:15Z</time>
      </trkpt>
      <trkpt lat="47.0039" lon="-1.02435">
        <ele>212</ele>
        <time>2019-11-15T18:44:18Z</time>
      </trkpt>
      <trkpt lat="47.00393" lon="-1.0243">
        <ele>210</ele>
        <time>2019-11-15T18:44:20Z</time>
      </trkpt>
      <trkpt lat="47.00395" lon="-1.02424">
        <ele>209</ele>
        <time>2019-11-15T18:44:22Z</time>
      </trkpt>
      <trkpt lat="47.00396" lon="-1.02418">
        <ele>207</ele>
        <time>2019-11-15T18:44:24Z</time>
      </trkpt>
      <trkpt lat="47.00398" lon="-1.02408">
        <ele>206</ele>
        <time>2019-11-15T18:44:27Z</time>
      </trkpt>
      <trkpt lat="47.00397" lon="-1.02381">
        <ele>206</ele>
        <time>2019-11-15T18:44:34Z</time>
      </trkpt>
      <trkpt lat="47.00397" lon="-1.02368">
        <ele>206</ele>
        <time>2019-11-15T18:44:38Z</time>
      </trkpt>
      <trkpt lat="47.00405" lon="-1.02343">
        <ele>207</ele>
        <time>2019-11-15T18:44:46Z</time>
      </trkpt>
      <trkpt lat="47.00409" lon="-1.02313">
        <ele>206</ele>
        <time>2019-11-15T18:44:55Z</time>
      </trkpt>
      <trkpt lat="47.00407" lon="-1.0231">
        <ele>206</ele>
        <time>2019-11-15T18:44:56Z</time>
      </trkpt>
      <trkpt lat="47.00407" lon="-1.02283">
        <ele>206</ele>
        <time>2019-11-15T18:45:03Z</time>
      </trkpt>
      <trkpt lat="47.00415" lon="-1.02255">
        <ele>206</ele>
        <time>2019-11-15T18:45:10Z</time>
      </trkpt>
      <trkpt lat="47.00418" lon="-1.02226">
        <ele>205</ele>
        <time>2019-11-15T18:45:17Z</time>
      </trkpt>
      <trkpt lat="47.00433" lon="-1.02207">
        <ele>206</ele>
        <time>2019-11-15T18:45:26Z</time>
      </trkpt>
      <trkpt lat="47.00447" lon="-1.02192">
        <ele>206</ele>
        <time>2019-11-15T18:45:33Z</time>
      </trkpt>
      <trkpt lat="47.00464" lon="-1.02172">
        <ele>206</ele>
        <time>2019-11-15T18:45:40Z</time>
      </trkpt>
      <trkpt lat="47.00476" lon="-1.02151">
        <ele>206</ele>
        <time>2019-11-15T18:45:46Z</time>
      </trkpt>
      <trkpt lat="47.00482" lon="-1.02124">
        <ele>206</ele>
        <time>2019-11-15T18:45:53Z</time>
      </trkpt>
      <trkpt lat="47.0049" lon="-1.021">
        <ele>206</ele>
        <time>2019-11-15T18:45:59Z</time>
      </trkpt>
      <trkpt lat="47.00494" lon="-1.02073">
        <ele>206</ele>
        <time>2019-11-15T18:46:06Z</time>
      </trkpt>
      <trkpt lat="47.00497" lon="-1.02045">
        <ele>206</ele>
        <time>2019-11-15T18:46:13Z</time>
      </trkpt>
      <trkpt lat="47.00498" lon="-1.02017">
        <ele>206</ele>
        <time>2019-11-15T18:46:21Z</time>
      </trkpt>
      <trkpt lat="47.00499" lon="-1.01989">
        <ele>206</ele>
        <time>2019-11-15T18:46:28Z</time>
      </trkpt>
      <trkpt lat="47.005" lon="-1.01977">
        <ele>206</ele>
        <time>2019-11-15T18:46:31Z</time>
      </trkpt>
      <trkpt lat="47.00504" lon="-1.01951">
        <ele>206</ele>
        <time>2019-11-15T18:46:38Z</time>
      </trkpt>
      <trkpt lat="47.00502" lon="-1.01925">
        <ele>206</ele>
        <time>2019-11-15T18:46:45Z</time>
      </trkpt>
      <trkpt lat="47.00502" lon="-1.01921">
        <ele>206</ele>
        <time>2019-11-15T18:46:46Z</time>
      </trkpt>
      <trkpt lat="47.00499" lon="-1.01894">
        <ele>206</ele>
        <time>2019-11-15T18:46:54Z</time>
      </trkpt>
      <trkpt lat="47.00493" lon="-1.01867">
        <ele>206</ele>
        <time>2019-11-15T18:47:01Z</time>
      </trkpt>
      <trkpt lat="47.00487" lon="-1.01841">
        <ele>206</ele>
        <time>2019-11-15T18:47:09Z</time>
      </trkpt>
      <trkpt lat="47.0048" lon="-1.01816">
        <ele>206</ele>
        <time>2019-11-15T18:47:17Z</time>
      </trkpt>
      <trkpt lat="47.00465" lon="-1.01797">
        <ele>206</ele>
        <time>2019-11-15T18:47:25Z</time>
      </trkpt>
      <trkpt lat="47.0045" lon="-1.01782">
        <ele>206</ele>
        <time>2019-11-15T18:47:33Z</time>
      </trkpt>
      <trkpt lat="47.00434" lon="-1.01768">
        <ele>207</ele>
        <time>2019-11-15T18:47:41Z</time>
      </trkpt>
      <trkpt lat="47.00417" lon="-1.01751">
        <ele>207</ele>
        <time>2019-11-15T18:47:49Z</time>
      </trkpt>
      <trkpt lat="47.00407" lon="-1.01743">
        <ele>207</ele>
        <time>2019-11-15T18:47:53Z</time>
      </trkpt>
      <trkpt lat="47.0039" lon="-1.01735">
        <ele>207</ele>
        <time>2019-11-15T18:48:01Z</time>
      </trkpt>
      <trkpt lat="47.00372" lon="-1.01722">
        <ele>207</ele>
        <time>2019-11-15T18:48:09Z</time>
      </trkpt>
      <trkpt lat="47.00355" lon="-1.01707">
        <ele>207</ele>
        <time>2019-11-15T18:48:16Z</time>
      </trkpt>
      <trkpt lat="47.00338" lon="-1.01691">
        <ele>207</ele>
        <time>2019-11-15T18:48:24Z</time>
      </trkpt>
      <trkpt lat="47.00322" lon="-1.0168">
        <ele>207</ele>
        <time>2019-11-15T18:48:31Z</time>
      </trkpt>
      <trkpt lat="47.00308" lon="-1.01661">
        <ele>207</ele>
        <time>2019-11-15T18:48:38Z</time>
      </trkpt>
      <trkpt lat="47.00303" lon="-1.01651">
        <ele>206</ele>
        <time>2019-11-15T18:48:41Z</time>
      </trkpt>
      <trkpt lat="47.00291" lon="-1.0163">
        <ele>206</ele>
        <time>2019-11-15T18:48:48Z</time>
      </trkpt>
      <trkpt lat="47.0029" lon="-1.01626">
        <ele>206</ele>
        <time>2019-11-15T18:48:49Z</time>
      </trkpt>
      <trkpt lat="47.00278" lon="-1.01605">
        <ele>206</ele>
        <time>2019-11-15T18:48:57Z</time>
      </trkpt>
      <trkpt lat="47.00275" lon="-1.01596">
        <ele>206</ele>
        <time>2019-11-15T18:49:00Z</time>
      </trkpt>
      <trkpt lat="47.00268" lon="-1.01577">
        <ele>207</ele>
        <time>2019-11-15T18:49:08Z</time>
      </trkpt>
      <trkpt lat="47.00268" lon="-1.01576">
        <ele>208</ele>
        <time>2019-11-15T18:49:09Z</time>
      </trkpt>
      <trkpt lat="47.00269" lon="-1.01574">
        <ele>209</ele>
        <time>2019-11-15T18:49:11Z</time>
      </trkpt>
      <trkpt lat="47.0027" lon="-1.01572">
        <ele>209</ele>
        <time>2019-11-15T18:49:12Z</time>
      </trkpt>
      <trkpt lat="47.00276" lon="-1.01562">
        <ele>209</ele>
        <time>2019-11-15T18:49:15Z</time>
      </trkpt>
      <trkpt lat="47.00287" lon="-1.01541">
        <ele>210</ele>
        <time>2019-11-15T18:49:22Z</time>
      </trkpt>
      <trkpt lat="47.00295" lon="-1.01527">
        <ele>210</ele>
        <time>2019-11-15T18:49:29Z</time>
      </trkpt>
      <trkpt lat="47.00296" lon="-1.01529">
        <ele>210</ele>
        <time>2019-11-15T18:49:30Z</time>
      </trkpt>
      <trkpt lat="47.003" lon="-1.01542">
        <ele>209</ele>
        <time>2019-11-15T18:49:34Z</time>
      </trkpt>
      <trkpt lat="47.00303" lon="-1.01548">
        <ele>207</ele>
        <time>2019-11-15T18:49:36Z</time>
      </trkpt>
      <trkpt lat="47.00307" lon="-1.01553">
        <ele>206</ele>
        <time>2019-11-15T18:49:38Z</time>
      </trkpt>
      <trkpt lat="47.00322" lon="-1.01573">
        <ele>206</ele>
        <time>2019-11-15T18:49:46Z</time>
      </trkpt>
      <trkpt lat="47.00331" lon="-1.01581">
        <ele>205</ele>
        <time>2019-11-15T18:49:51Z</time>
      </trkpt>
      <trkpt lat="47.00334" lon="-1.01584">
        <ele>205</ele>
        <time>2019-11-15T18:49:53Z</time>
      </trkpt>
      <trkpt lat="47.00349" lon="-1.016">
        <ele>206</ele>
        <time>2019-11-15T18:50:00Z</time>
      </trkpt>
      <trkpt lat="47.00365" lon="-1.0161">
        <ele>206</ele>
        <time>2019-11-15T18:50:08Z</time>
      </trkpt>
      <trkpt lat="47.00383" lon="-1.016">
        <ele>205</ele>
        <time>2019-11-15T18:50:15Z</time>
      </trkpt>
      <trkpt lat="47.00386" lon="-1.01597">
        <ele>205</ele>
        <time>2019-11-15T18:50:17Z</time>
      </trkpt>
      <trkpt lat="47.0039" lon="-1.01598">
        <ele>206</ele>
        <time>2019-11-15T18:50:20Z</time>
      </trkpt>
      <trkpt lat="47.0039" lon="-1.01606">
        <ele>206</ele>
        <time>2019-11-15T18:50:22Z</time>
      </trkpt>
      <trkpt lat="47.00378" lon="-1.01627">
        <ele>206</ele>
        <time>2019-11-15T18:50:32Z</time>
      </trkpt>
      <trkpt lat="47.00381" lon="-1.01633">
        <ele>206</ele>
        <time>2019-11-15T18:50:34Z</time>
      </trkpt>
      <trkpt lat="47.00395" lon="-1.01653">
        <ele>206</ele>
        <time>2019-11-15T18:50:41Z</time>
      </trkpt>
      <trkpt lat="47.00409" lon="-1.01672">
        <ele>206</ele>
        <time>2019-11-15T18:50:48Z</time>
      </trkpt>
      <trkpt lat="47.00424" lon="-1.01688">
        <ele>206</ele>
        <time>2019-11-15T18:50:55Z</time>
      </trkpt>
      <trkpt lat="47.00441" lon="-1.01701">
        <ele>206</ele>
        <time>2019-11-15T18:51:02Z</time>
      </trkpt>
      <trkpt lat="47.00458" lon="-1.01712">
        <ele>206</ele>
        <time>2019-11-15T18:51:09Z</time>
      </trkpt>
      <trkpt lat="47.00476" lon="-1.01724">
        <ele>205</ele>
        <time>2019-11-15T18:51:17Z</time>
      </trkpt>
      <trkpt lat="47.00492" lon="-1.01738">
        <ele>205</ele>
        <time>2019-11-15T18:51:24Z</time>
      </trkpt>
      <trkpt lat="47.00507" lon="-1.01753">
        <ele>205</ele>
        <time>2019-11-15T18:51:31Z</time>
      </trkpt>
      <trkpt lat="47.00519" lon="-1.01775">
        <ele>205</ele>
        <time>2019-11-15T18:51:38Z</time>
      </trkpt>
      <trkpt lat="47.00531" lon="-1.01798">
        <ele>205</ele>
        <time>2019-11-15T18:51:46Z</time>
      </trkpt>
      <trkpt lat="47.00544" lon="-1.01819">
        <ele>205</ele>
        <time>2019-11-15T18:51:54Z</time>
      </trkpt>
      <trkpt lat="47.00546" lon="-1.01826">
        <ele>205</ele>
        <time>2019-11-15T18:51:56Z</time>
      </trkpt>
      <trkpt lat="47.0055" lon="-1.01856">
        <ele>205</ele>
        <time>2019-11-15T18:52:03Z</time>
      </trkpt>
      <trkpt lat="47.00547" lon="-1.01885">
        <ele>205</ele>
        <time>2019-11-15T18:52:10Z</time>
      </trkpt>
      <trkpt lat="47.00547" lon="-1.01906">
        <ele>206</ele>
        <time>2019-11-15T18:52:19Z</time>
      </trkpt>
      <trkpt lat="47.00546" lon="-1.01908">
        <ele>206</ele>
        <time>2019-11-15T18:52:21Z</time>
      </trkpt>
      <trkpt lat="47.00544" lon="-1.01911">
        <ele>206</ele>
        <time>2019-11-15T18:52:24Z</time>
      </trkpt>
      <trkpt lat="47.00544" lon="-1.01915">
        <ele>206</ele>
        <time>2019-11-15T18:52:26Z</time>
      </trkpt>
      <trkpt lat="47.00543" lon="-1.01917">
        <ele>206</ele>
        <time>2019-11-15T18:52:28Z</time>
      </trkpt>
      <trkpt lat="47.00544" lon="-1.01921">
        <ele>205</ele>
        <time>2019-11-15T18:53:04Z</time>
      </trkpt>
      <trkpt lat="47.00541" lon="-1.0193">
        <ele>206</ele>
        <time>2019-11-15T18:53:12Z</time>
      </trkpt>
      <trkpt lat="47.00539" lon="-1.01948">
        <ele>206</ele>
        <time>2019-11-15T18:53:18Z</time>
      </trkpt>
      <trkpt lat="47.00539" lon="-1.0195">
        <ele>207</ele>
        <time>2019-11-15T18:53:20Z</time>
      </trkpt>
      <trkpt lat="47.00537" lon="-1.01954">
        <ele>207</ele>
        <time>2019-11-15T18:53:22Z</time>
      </trkpt>
      <trkpt lat="47.00535" lon="-1.01957">
        <ele>207</ele>
        <time>2019-11-15T18:53:23Z</time>
      </trkpt>
      <trkpt lat="47.00535" lon="-1.01963">
        <ele>207</ele>
        <time>2019-11-15T18:53:25Z</time>
      </trkpt>
      <trkpt lat="47.00535" lon="-1.01967">
        <ele>207</ele>
        <time>2019-11-15T18:53:26Z</time>
      </trkpt>
      <trkpt lat="47.00537" lon="-1.01974">
        <ele>206</ele>
        <time>2019-11-15T18:53:28Z</time>
      </trkpt>
      <trkpt lat="47.00538" lon="-1.01983">
        <ele>205</ele>
        <time>2019-11-15T18:53:31Z</time>
      </trkpt>
      <trkpt lat="47.00538" lon="-1.0201">
        <ele>205</ele>
        <time>2019-11-15T18:53:38Z</time>
      </trkpt>
      <trkpt lat="47.00538" lon="-1.02019">
        <ele>205</ele>
        <time>2019-11-15T18:53:40Z</time>
      </trkpt>
      <trkpt lat="47.00533" lon="-1.02047">
        <ele>205</ele>
        <time>2019-11-15T18:53:48Z</time>
      </trkpt>
      <trkpt lat="47.00532" lon="-1.02051">
        <ele>205</ele>
        <time>2019-11-15T18:53:49Z</time>
      </trkpt>
      <trkpt lat="47.00529" lon="-1.02077">
        <ele>206</ele>
        <time>2019-11-15T18:53:56Z</time>
      </trkpt>
      <trkpt lat="47.00527" lon="-1.02094">
        <ele>205</ele>
        <time>2019-11-15T18:54:01Z</time>
      </trkpt>
      <trkpt lat="47.00527" lon="-1.02104">
        <ele>205</ele>
        <time>2019-11-15T18:54:05Z</time>
      </trkpt>
      <trkpt lat="47.00527" lon="-1.02111">
        <ele>205</ele>
        <time>2019-11-15T18:54:07Z</time>
      </trkpt>
      <trkpt lat="47.0053" lon="-1.02119">
        <ele>205</ele>
        <time>2019-11-15T18:54:10Z</time>
      </trkpt>
      <trkpt lat="47.00534" lon="-1.02128">
        <ele>205</ele>
        <time>2019-11-15T18:54:13Z</time>
      </trkpt>
      <trkpt lat="47.00534" lon="-1.02134">
        <ele>206</ele>
        <time>2019-11-15T18:54:15Z</time>
      </trkpt>
      <trkpt lat="47.00536" lon="-1.02148">
        <ele>207</ele>
        <time>2019-11-15T18:54:19Z</time>
      </trkpt>
      <trkpt lat="47.00537" lon="-1.0216">
        <ele>207</ele>
        <time>2019-11-15T18:54:22Z</time>
      </trkpt>
      <trkpt lat="47.0054" lon="-1.02166">
        <ele>208</ele>
        <time>2019-11-15T18:54:24Z</time>
      </trkpt>
      <trkpt lat="47.00544" lon="-1.02175">
        <ele>209</ele>
        <time>2019-11-15T18:54:27Z</time>
      </trkpt>
      <trkpt lat="47.00543" lon="-1.02186">
        <ele>210</ele>
        <time>2019-11-15T18:54:31Z</time>
      </trkpt>
      <trkpt lat="47.00543" lon="-1.02189">
        <ele>210</ele>
        <time>2019-11-15T18:54:32Z</time>
      </trkpt>
      <trkpt lat="47.00543" lon="-1.02196">
        <ele>211</ele>
        <time>2019-11-15T18:54:34Z</time>
      </trkpt>
      <trkpt lat="47.00545" lon="-1.02201">
        <ele>212</ele>
        <time>2019-11-15T18:54:36Z</time>
      </trkpt>
      <trkpt lat="47.00546" lon="-1.02208">
        <ele>213</ele>
        <time>2019-11-15T18:54:39Z</time>
      </trkpt>
      <trkpt lat="47.00547" lon="-1.02216">
        <ele>215</ele>
        <time>2019-11-15T18:54:42Z</time>
      </trkpt>
      <trkpt lat="47.00546" lon="-1.02224">
        <ele>216</ele>
        <time>2019-11-15T18:54:45Z</time>
      </trkpt>
      <trkpt lat="47.00546" lon="-1.0223">
        <ele>217</ele>
        <time>2019-11-15T18:54:47Z</time>
      </trkpt>
      <trkpt lat="47.00546" lon="-1.02233">
        <ele>218</ele>
        <time>2019-11-15T18:54:49Z</time>
      </trkpt>
      <trkpt lat="47.00547" lon="-1.02236">
        <ele>218</ele>
        <time>2019-11-15T18:54:50Z</time>
      </trkpt>
      <trkpt lat="47.00546" lon="-1.02242">
        <ele>219</ele>
        <time>2019-11-15T18:54:53Z</time>
      </trkpt>
      <trkpt lat="47.00546" lon="-1.02246">
        <ele>220</ele>
        <time>2019-11-15T18:54:55Z</time>
      </trkpt>
      <trkpt lat="47.00545" lon="-1.0225">
        <ele>220</ele>
        <time>2019-11-15T18:54:57Z</time>
      </trkpt>
      <trkpt lat="47.00546" lon="-1.02253">
        <ele>221</ele>
        <time>2019-11-15T18:54:59Z</time>
      </trkpt>
      <trkpt lat="47.00545" lon="-1.02258">
        <ele>221</ele>
        <time>2019-11-15T18:55:02Z</time>
      </trkpt>
      <trkpt lat="47.00545" lon="-1.02259">
        <ele>221</ele>
        <time>2019-11-15T18:55:03Z</time>
      </trkpt>
      <trkpt lat="47.00546" lon="-1.02261">
        <ele>222</ele>
        <time>2019-11-15T18:55:05Z</time>
      </trkpt>
      <trkpt lat="47.00547" lon="-1.02265">
        <ele>222</ele>
        <time>2019-11-15T18:55:07Z</time>
      </trkpt>
      <trkpt lat="47.00549" lon="-1.02273">
        <ele>223</ele>
        <time>2019-11-15T18:55:10Z</time>
      </trkpt>
      <trkpt lat="47.00551" lon="-1.0228">
        <ele>224</ele>
        <time>2019-11-15T18:55:13Z</time>
      </trkpt>
      <trkpt lat="47.00553" lon="-1.02288">
        <ele>225</ele>
        <time>2019-11-15T18:55:16Z</time>
      </trkpt>
      <trkpt lat="47.00553" lon="-1.02294">
        <ele>225</ele>
        <time>2019-11-15T18:55:19Z</time>
      </trkpt>
      <trkpt lat="47.00553" lon="-1.02296">
        <ele>226</ele>
        <time>2019-11-15T18:55:20Z</time>
      </trkpt>
      <trkpt lat="47.00553" lon="-1.02324">
        <ele>225</ele>
        <time>2019-11-15T18:55:29Z</time>
      </trkpt>
      <trkpt lat="47.00554" lon="-1.02348">
        <ele>225</ele>
        <time>2019-11-15T18:55:36Z</time>
      </trkpt>
      <trkpt lat="47.00555" lon="-1.02371">
        <ele>224</ele>
        <time>2019-11-15T18:55:42Z</time>
      </trkpt>
      <trkpt lat="47.00564" lon="-1.02396">
        <ele>223</ele>
        <time>2019-11-15T18:55:51Z</time>
      </trkpt>
      <trkpt lat="47.0057" lon="-1.02413">
        <ele>223</ele>
        <time>2019-11-15T18:55:57Z</time>
      </trkpt>
      <trkpt lat="47.00572" lon="-1.02416">
        <ele>223</ele>
        <time>2019-11-15T18:55:58Z</time>
      </trkpt>
      <trkpt lat="47.00574" lon="-1.02422">
        <ele>223</ele>
        <time>2019-11-15T18:56:00Z</time>
      </trkpt>
      <trkpt lat="47.0058" lon="-1.02431">
        <ele>223</ele>
        <time>2019-11-15T18:56:05Z</time>
      </trkpt>
      <trkpt lat="47.00583" lon="-1.02438">
        <ele>223</ele>
        <time>2019-11-15T18:56:08Z</time>
      </trkpt>
      <trkpt lat="47.00584" lon="-1.02441">
        <ele>223</ele>
        <time>2019-11-15T18:56:10Z</time>
      </trkpt>
      <trkpt lat="47.00585" lon="-1.02443">
        <ele>224</ele>
        <time>2019-11-15T18:56:11Z</time>
      </trkpt>
      <trkpt lat="47.00586" lon="-1.02444">
        <ele>224</ele>
        <time>2019-11-15T18:56:12Z</time>
      </trkpt>
      <trkpt lat="47.00589" lon="-1.02446">
        <ele>225</ele>
        <time>2019-11-15T18:56:14Z</time>
      </trkpt>
      <trkpt lat="47.00591" lon="-1.02448">
        <ele>225</ele>
        <time>2019-11-15T18:56:15Z</time>
      </trkpt>
      <trkpt lat="47.00596" lon="-1.02452">
        <ele>226</ele>
        <time>2019-11-15T18:56:18Z</time>
      </trkpt>
      <trkpt lat="47.006" lon="-1.02456">
        <ele>227</ele>
        <time>2019-11-15T18:56:21Z</time>
      </trkpt>
      <trkpt lat="47.00601" lon="-1.02458">
        <ele>228</ele>
        <time>2019-11-15T18:56:22Z</time>
      </trkpt>
      <trkpt lat="47.00602" lon="-1.02462">
        <ele>229</ele>
        <time>2019-11-15T18:56:24Z</time>
      </trkpt>
      <trkpt lat="47.00603" lon="-1.02463">
        <ele>229</ele>
        <time>2019-11-15T18:56:25Z</time>
      </trkpt>
      <trkpt lat="47.00605" lon="-1.02465">
        <ele>230</ele>
        <time>2019-11-15T18:56:27Z</time>
      </trkpt>
      <trkpt lat="47.00611" lon="-1.02467">
        <ele>231</ele>
        <time>2019-11-15T18:56:30Z</time>
      </trkpt>
      <trkpt lat="47.00615" lon="-1.02471">
        <ele>232</ele>
        <time>2019-11-15T18:56:34Z</time>
      </trkpt>
      <trkpt lat="47.00618" lon="-1.02471">
        <ele>233</ele>
        <time>2019-11-15T18:56:37Z</time>
      </trkpt>
      <trkpt lat="47.00619" lon="-1.02472">
        <ele>233</ele>
        <time>2019-11-15T18:56:38Z</time>
      </trkpt>
      <trkpt lat="47.00626" lon="-1.02474">
        <ele>234</ele>
        <time>2019-11-15T18:56:42Z</time>
      </trkpt>
      <trkpt lat="47.00628" lon="-1.02475">
        <ele>234</ele>
        <time>2019-11-15T18:56:43Z</time>
      </trkpt>
      <trkpt lat="47.00631" lon="-1.02477">
        <ele>235</ele>
        <time>2019-11-15T18:56:46Z</time>
      </trkpt>
      <trkpt lat="47.0064" lon="-1.02477">
        <ele>235</ele>
        <time>2019-11-15T18:56:53Z</time>
      </trkpt>
      <trkpt lat="47.00644" lon="-1.02477">
        <ele>236</ele>
        <time>2019-11-15T18:56:56Z</time>
      </trkpt>
      <trkpt lat="47.00647" lon="-1.02478">
        <ele>236</ele>
        <time>2019-11-15T18:57:00Z</time>
      </trkpt>
      <trkpt lat="47.00652" lon="-1.02478">
        <ele>236</ele>
        <time>2019-11-15T18:57:05Z</time>
      </trkpt>
      <trkpt lat="47.00654" lon="-1.02476">
        <ele>236</ele>
        <time>2019-11-15T18:57:06Z</time>
      </trkpt>
      <trkpt lat="47.00656" lon="-1.02476">
        <ele>237</ele>
        <time>2019-11-15T18:57:07Z</time>
      </trkpt>
      <trkpt lat="47.0066" lon="-1.02475">
        <ele>238</ele>
        <time>2019-11-15T18:57:08Z</time>
      </trkpt>
      <trkpt lat="47.00671" lon="-1.02474">
        <ele>239</ele>
        <time>2019-11-15T18:57:13Z</time>
      </trkpt>
      <trkpt lat="47.00677" lon="-1.02474">
        <ele>240</ele>
        <time>2019-11-15T18:57:16Z</time>
      </trkpt>
      <trkpt lat="47.00679" lon="-1.02473">
        <ele>240</ele>
        <time>2019-11-15T18:57:17Z</time>
      </trkpt>
      <trkpt lat="47.00685" lon="-1.02473">
        <ele>241</ele>
        <time>2019-11-15T18:57:20Z</time>
      </trkpt>
      <trkpt lat="47.00689" lon="-1.02473">
        <ele>242</ele>
        <time>2019-11-15T18:57:23Z</time>
      </trkpt>
      <trkpt lat="47.00694" lon="-1.02475">
        <ele>242</ele>
        <time>2019-11-15T18:57:26Z</time>
      </trkpt>
      <trkpt lat="47.00696" lon="-1.02475">
        <ele>242</ele>
        <time>2019-11-15T18:57:27Z</time>
      </trkpt>
      <trkpt lat="47.00717" lon="-1.02472">
        <ele>243</ele>
        <time>2019-11-15T18:57:39Z</time>
      </trkpt>
      <trkpt lat="47.0072" lon="-1.0247">
        <ele>243</ele>
        <time>2019-11-15T18:57:42Z</time>
      </trkpt>
      <trkpt lat="47.00731" lon="-1.02464">
        <ele>244</ele>
        <time>2019-11-15T18:57:46Z</time>
      </trkpt>
      <trkpt lat="47.00735" lon="-1.02463">
        <ele>245</ele>
        <time>2019-11-15T18:57:47Z</time>
      </trkpt>
      <trkpt lat="47.00745" lon="-1.02459">
        <ele>245</ele>
        <time>2019-11-15T18:57:51Z</time>
      </trkpt>
      <trkpt lat="47.00759" lon="-1.0245">
        <ele>246</ele>
        <time>2019-11-15T18:57:58Z</time>
      </trkpt>
      <trkpt lat="47.00774" lon="-1.02432">
        <ele>246</ele>
        <time>2019-11-15T18:58:07Z</time>
      </trkpt>
      <trkpt lat="47.00776" lon="-1.02411">
        <ele>247</ele>
        <time>2019-11-15T18:58:15Z</time>
      </trkpt>
      <trkpt lat="47.00776" lon="-1.02405">
        <ele>247</ele>
        <time>2019-11-15T18:58:17Z</time>
      </trkpt>
      <trkpt lat="47.00777" lon="-1.02403">
        <ele>248</ele>
        <time>2019-11-15T18:58:18Z</time>
      </trkpt>
      <trkpt lat="47.00781" lon="-1.02396">
        <ele>249</ele>
        <time>2019-11-15T18:58:22Z</time>
      </trkpt>
      <trkpt lat="47.00783" lon="-1.0239">
        <ele>250</ele>
        <time>2019-11-15T18:58:25Z</time>
      </trkpt>
      <trkpt lat="47.00784" lon="-1.02387">
        <ele>250</ele>
        <time>2019-11-15T18:58:26Z</time>
      </trkpt>
      <trkpt lat="47.00786" lon="-1.02384">
        <ele>250</ele>
        <time>2019-11-15T18:58:28Z</time>
      </trkpt>
      <trkpt lat="47.0079" lon="-1.02381">
        <ele>251</ele>
        <time>2019-11-15T18:58:32Z</time>
      </trkpt>
      <trkpt lat="47.00793" lon="-1.02379">
        <ele>251</ele>
        <time>2019-11-15T18:58:34Z</time>
      </trkpt>
      <trkpt lat="47.00795" lon="-1.02374">
        <ele>251</ele>
        <time>2019-11-15T18:58:39Z</time>
      </trkpt>
      <trkpt lat="47.00796" lon="-1.02372">
        <ele>251</ele>
        <time>2019-11-15T18:58:41Z</time>
      </trkpt>
      <trkpt lat="47.00798" lon="-1.0237">
        <ele>251</ele>
        <time>2019-11-15T18:58:44Z</time>
      </trkpt>
      <trkpt lat="47.00804" lon="-1.02368">
        <ele>252</ele>
        <time>2019-11-15T18:58:49Z</time>
      </trkpt>
      <trkpt lat="47.00805" lon="-1.02367">
        <ele>252</ele>
        <time>2019-11-15T18:58:50Z</time>
      </trkpt>
      <trkpt lat="47.00806" lon="-1.02367">
        <ele>252</ele>
        <time>2019-11-15T18:58:52Z</time>
      </trkpt>
      <trkpt lat="47.00812" lon="-1.02364">
        <ele>253</ele>
        <time>2019-11-15T18:58:58Z</time>
      </trkpt>
      <trkpt lat="47.00816" lon="-1.02363">
        <ele>253</ele>
        <time>2019-11-15T18:59:01Z</time>
      </trkpt>
      <trkpt lat="47.0082" lon="-1.02362">
        <ele>254</ele>
        <time>2019-11-15T18:59:04Z</time>
      </trkpt>
      <trkpt lat="47.00829" lon="-1.02357">
        <ele>254</ele>
        <time>2019-11-15T18:59:11Z</time>
      </trkpt>
      <trkpt lat="47.00835" lon="-1.02353">
        <ele>255</ele>
        <time>2019-11-15T18:59:15Z</time>
      </trkpt>
      <trkpt lat="47.00839" lon="-1.0235">
        <ele>256</ele>
        <time>2019-11-15T18:59:18Z</time>
      </trkpt>
      <trkpt lat="47.00847" lon="-1.02341">
        <ele>257</ele>
        <time>2019-11-15T18:59:26Z</time>
      </trkpt>
      <trkpt lat="47.00848" lon="-1.02338">
        <ele>257</ele>
        <time>2019-11-15T18:59:29Z</time>
      </trkpt>
      <trkpt lat="47.00854" lon="-1.02332">
        <ele>258</ele>
        <time>2019-11-15T18:59:34Z</time>
      </trkpt>
      <trkpt lat="47.00856" lon="-1.0233">
        <ele>258</ele>
        <time>2019-11-15T18:59:37Z</time>
      </trkpt>
      <trkpt lat="47.0086" lon="-1.02327">
        <ele>259</ele>
        <time>2019-11-15T18:59:41Z</time>
      </trkpt>
      <trkpt lat="47.00865" lon="-1.02323">
        <ele>260</ele>
        <time>2019-11-15T18:59:46Z</time>
      </trkpt>
      <trkpt lat="47.00866" lon="-1.02322">
        <ele>260</ele>
        <time>2019-11-15T18:59:48Z</time>
      </trkpt>
      <trkpt lat="47.00867" lon="-1.02323">
        <ele>260</ele>
        <time>2019-11-15T18:59:49Z</time>
      </trkpt>
      <trkpt lat="47.00871" lon="-1.02328">
        <ele>261</ele>
        <time>2019-11-15T18:59:55Z</time>
      </trkpt>
      <trkpt lat="47.00871" lon="-1.0233">
        <ele>261</ele>
        <time>2019-11-15T18:59:57Z</time>
      </trkpt>
      <trkpt lat="47.00872" lon="-1.02333">
        <ele>261</ele>
        <time>2019-11-15T18:59:59Z</time>
      </trkpt>
      <trkpt lat="47.00873" lon="-1.02336">
        <ele>261</ele>
        <time>2019-11-15T19:00:01Z</time>
      </trkpt>
      <trkpt lat="47.00876" lon="-1.02341">
        <ele>261</ele>
        <time>2019-11-15T19:00:04Z</time>
      </trkpt>
      <trkpt lat="47.00879" lon="-1.02341">
        <ele>262</ele>
        <time>2019-11-15T19:00:06Z</time>
      </trkpt>
      <trkpt lat="47.00881" lon="-1.02342">
        <ele>263</ele>
        <time>2019-11-15T19:00:07Z</time>
      </trkpt>
      <trkpt lat="47.00887" lon="-1.02343">
        <ele>263</ele>
        <time>2019-11-15T19:00:12Z</time>
      </trkpt>
      <trkpt lat="47.00889" lon="-1.02344">
        <ele>263</ele>
        <time>2019-11-15T19:00:13Z</time>
      </trkpt>
      <trkpt lat="47.00906" lon="-1.02347">
        <ele>263</ele>
        <time>2019-11-15T19:00:23Z</time>
      </trkpt>
      <trkpt lat="47.00911" lon="-1.02348">
        <ele>263</ele>
        <time>2019-11-15T19:00:25Z</time>
      </trkpt>
      <trkpt lat="47.0093" lon="-1.02356">
        <ele>263</ele>
        <time>2019-11-15T19:00:32Z</time>
      </trkpt>
      <trkpt lat="47.00949" lon="-1.02363">
        <ele>263</ele>
        <time>2019-11-15T19:00:40Z</time>
      </trkpt>
      <trkpt lat="47.00955" lon="-1.02365">
        <ele>263</ele>
        <time>2019-11-15T19:00:43Z</time>
      </trkpt>
      <trkpt lat="47.00974" lon="-1.0237">
        <ele>264</ele>
        <time>2019-11-15T19:00:51Z</time>
      </trkpt>
      <trkpt lat="47.00992" lon="-1.02375">
        <ele>264</ele>
        <time>2019-11-15T19:01:00Z</time>
      </trkpt>
      <trkpt lat="47.00994" lon="-1.02376">
        <ele>264</ele>
        <time>2019-11-15T19:01:01Z</time>
      </trkpt>
      <trkpt lat="47.00997" lon="-1.02377">
        <ele>264</ele>
        <time>2019-11-15T19:01:03Z</time>
      </trkpt>
      <trkpt lat="47.01" lon="-1.02378">
        <ele>265</ele>
        <time>2019-11-15T19:01:05Z</time>
      </trkpt>
      <trkpt lat="47.01009" lon="-1.0238">
        <ele>264</ele>
        <time>2019-11-15T19:01:09Z</time>
      </trkpt>
      <trkpt lat="47.01023" lon="-1.02386">
        <ele>265</ele>
        <time>2019-11-15T19:01:15Z</time>
      </trkpt>
      <trkpt lat="47.01032" lon="-1.02388">
        <ele>265</ele>
        <time>2019-11-15T19:01:20Z</time>
      </trkpt>
      <trkpt lat="47.01047" lon="-1.0239">
        <ele>265</ele>
        <time>2019-11-15T19:01:26Z</time>
      </trkpt>
      <trkpt lat="47.01049" lon="-1.02389">
        <ele>265</ele>
        <time>2019-11-15T19:01:27Z</time>
      </trkpt>
      <trkpt lat="47.01058" lon="-1.0239">
        <ele>266</ele>
        <time>2019-11-15T19:01:31Z</time>
      </trkpt>
      <trkpt lat="47.01064" lon="-1.02392">
        <ele>266</ele>
        <time>2019-11-15T19:01:34Z</time>
      </trkpt>
      <trkpt lat="47.01068" lon="-1.02391">
        <ele>266</ele>
        <time>2019-11-15T19:01:35Z</time>
      </trkpt>
      <trkpt lat="47.0107" lon="-1.02391">
        <ele>267</ele>
        <time>2019-11-15T19:01:36Z</time>
      </trkpt>
      <trkpt lat="47.01078" lon="-1.02392">
        <ele>267</ele>
        <time>2019-11-15T19:01:41Z</time>
      </trkpt>
      <trkpt lat="47.01083" lon="-1.02396">
        <ele>266</ele>
        <time>2019-11-15T19:01:46Z</time>
      </trkpt>
      <trkpt lat="47.01101" lon="-1.02399">
        <ele>267</ele>
        <time>2019-11-15T19:01:57Z</time>
      </trkpt>
      <trkpt lat="47.01106" lon="-1.02399">
        <ele>267</ele>
        <time>2019-11-15T19:02:00Z</time>
      </trkpt>
      <trkpt lat="47.01109" lon="-1.02399">
        <ele>268</ele>
        <time>2019-11-15T19:02:02Z</time>
      </trkpt>
      <trkpt lat="47.01127" lon="-1.02396">
        <ele>267</ele>
        <time>2019-11-15T19:02:13Z</time>
      </trkpt>
      <trkpt lat="47.01136" lon="-1.02389">
        <ele>268</ele>
        <time>2019-11-15T19:02:20Z</time>
      </trkpt>
      <trkpt lat="47.01144" lon="-1.02394">
        <ele>269</ele>
        <time>2019-11-15T19:02:26Z</time>
      </trkpt>
      <trkpt lat="47.01162" lon="-1.02393">
        <ele>269</ele>
        <time>2019-11-15T19:02:39Z</time>
      </trkpt>
      <trkpt lat="47.01181" lon="-1.02392">
        <ele>269</ele>
        <time>2019-11-15T19:02:49Z</time>
      </trkpt>
      <trkpt lat="47.01188" lon="-1.02417">
        <ele>269</ele>
        <time>2019-11-15T19:02:56Z</time>
      </trkpt>
      <trkpt lat="47.01197" lon="-1.0244">
        <ele>269</ele>
        <time>2019-11-15T19:03:03Z</time>
      </trkpt>
      <trkpt lat="47.01199" lon="-1.02446">
        <ele>270</ele>
        <time>2019-11-15T19:03:05Z</time>
      </trkpt>
      <trkpt lat="47.01209" lon="-1.02471">
        <ele>270</ele>
        <time>2019-11-15T19:03:13Z</time>
      </trkpt>
      <trkpt lat="47.01219" lon="-1.02492">
        <ele>271</ele>
        <time>2019-11-15T19:03:20Z</time>
      </trkpt>
      <trkpt lat="47.01226" lon="-1.02518">
        <ele>271</ele>
        <time>2019-11-15T19:03:27Z</time>
      </trkpt>
      <trkpt lat="47.01234" lon="-1.02544">
        <ele>271</ele>
        <time>2019-11-15T19:03:34Z</time>
      </trkpt>
      <trkpt lat="47.01239" lon="-1.02553">
        <ele>272</ele>
        <time>2019-11-15T19:03:37Z</time>
      </trkpt>
      <trkpt lat="47.01248" lon="-1.02578">
        <ele>272</ele>
        <time>2019-11-15T19:03:45Z</time>
      </trkpt>
      <trkpt lat="47.01254" lon="-1.02599">
        <ele>273</ele>
        <time>2019-11-15T19:03:52Z</time>
      </trkpt>
      <trkpt lat="47.01263" lon="-1.02623">
        <ele>273</ele>
        <time>2019-11-15T19:03:59Z</time>
      </trkpt>
      <trkpt lat="47.01271" lon="-1.02649">
        <ele>273</ele>
        <time>2019-11-15T19:04:07Z</time>
      </trkpt>
      <trkpt lat="47.01276" lon="-1.02677">
        <ele>274</ele>
        <time>2019-11-15T19:04:14Z</time>
      </trkpt>
      <trkpt lat="47.01281" lon="-1.02705">
        <ele>274</ele>
        <time>2019-11-15T19:04:22Z</time>
      </trkpt>
      <trkpt lat="47.01286" lon="-1.0272">
        <ele>274</ele>
        <time>2019-11-15T19:04:27Z</time>
      </trkpt>
      <trkpt lat="47.01292" lon="-1.02746">
        <ele>274</ele>
        <time>2019-11-15T19:04:34Z</time>
      </trkpt>
      <trkpt lat="47.01299" lon="-1.02771">
        <ele>274</ele>
        <time>2019-11-15T19:04:41Z</time>
      </trkpt>
      <trkpt lat="47.01306" lon="-1.02799">
        <ele>273</ele>
        <time>2019-11-15T19:04:49Z</time>
      </trkpt>
      <trkpt lat="47.01311" lon="-1.02827">
        <ele>274</ele>
        <time>2019-11-15T19:04:57Z</time>
      </trkpt>
      <trkpt lat="47.01315" lon="-1.02854">
        <ele>274</ele>
        <time>2019-11-15T19:05:04Z</time>
      </trkpt>
      <trkpt lat="47.01318" lon="-1.0287">
        <ele>273</ele>
        <time>2019-11-15T19:05:08Z</time>
      </trkpt>
      <trkpt lat="47.01324" lon="-1.02897">
        <ele>273</ele>
        <time>2019-11-15T19:05:15Z</time>
      </trkpt>
      <trkpt lat="47.01326" lon="-1.02926">
        <ele>272</ele>
        <time>2019-11-15T19:05:22Z</time>
      </trkpt>
      <trkpt lat="47.01326" lon="-1.02933">
        <ele>272</ele>
        <time>2019-11-15T19:05:24Z</time>
      </trkpt>
      <trkpt lat="47.01328" lon="-1.02961">
        <ele>271</ele>
        <time>2019-11-15T19:05:31Z</time>
      </trkpt>
      <trkpt lat="47.0133" lon="-1.02978">
        <ele>271</ele>
        <time>2019-11-15T19:05:36Z</time>
      </trkpt>
      <trkpt lat="47.0133" lon="-1.03005">
        <ele>270</ele>
        <time>2019-11-15T19:05:44Z</time>
      </trkpt>
      <trkpt lat="47.01329" lon="-1.03008">
        <ele>270</ele>
        <time>2019-11-15T19:05:45Z</time>
      </trkpt>
      <trkpt lat="47.01331" lon="-1.03036">
        <ele>270</ele>
        <time>2019-11-15T19:05:53Z</time>
      </trkpt>
      <trkpt lat="47.01331" lon="-1.03063">
        <ele>270</ele>
        <time>2019-11-15T19:06:00Z</time>
      </trkpt>
      <trkpt lat="47.01335" lon="-1.0309">
        <ele>270</ele>
        <time>2019-11-15T19:06:07Z</time>
      </trkpt>
      <trkpt lat="47.01341" lon="-1.03118">
        <ele>270</ele>
        <time>2019-11-15T19:06:15Z</time>
      </trkpt>
      <trkpt lat="47.01347" lon="-1.03143">
        <ele>271</ele>
        <time>2019-11-15T19:06:23Z</time>
      </trkpt>
      <trkpt lat="47.01354" lon="-1.03171">
        <ele>271</ele>
        <time>2019-11-15T19:06:31Z</time>
      </trkpt>
      <trkpt lat="47.0136" lon="-1.03197">
        <ele>272</ele>
        <time>2019-11-15T19:06:39Z</time>
      </trkpt>
      <trkpt lat="47.01363" lon="-1.03203">
        <ele>272</ele>
        <time>2019-11-15T19:06:41Z</time>
      </trkpt>
      <trkpt lat="47.01367" lon="-1.03231">
        <ele>273</ele>
        <time>2019-11-15T19:06:49Z</time>
      </trkpt>
      <trkpt lat="47.01369" lon="-1.03246">
        <ele>273</ele>
        <time>2019-11-15T19:06:53Z</time>
      </trkpt>
      <trkpt lat="47.01373" lon="-1.03272">
        <ele>274</ele>
        <time>2019-11-15T19:07:00Z</time>
      </trkpt>
      <trkpt lat="47.0138" lon="-1.03298">
        <ele>274</ele>
        <time>2019-11-15T19:07:08Z</time>
      </trkpt>
      <trkpt lat="47.01386" lon="-1.03324">
        <ele>274</ele>
        <time>2019-11-15T19:07:16Z</time>
      </trkpt>
      <trkpt lat="47.01388" lon="-1.0333">
        <ele>274</ele>
        <time>2019-11-15T19:07:18Z</time>
      </trkpt>
      <trkpt lat="47.01395" lon="-1.03355">
        <ele>275</ele>
        <time>2019-11-15T19:07:26Z</time>
      </trkpt>
      <trkpt lat="47.01399" lon="-1.03368">
        <ele>275</ele>
        <time>2019-11-15T19:07:30Z</time>
      </trkpt>
      <trkpt lat="47.01409" lon="-1.0339">
        <ele>276</ele>
        <time>2019-11-15T19:07:38Z</time>
      </trkpt>
      <trkpt lat="47.01419" lon="-1.03414">
        <ele>276</ele>
        <time>2019-11-15T19:07:46Z</time>
      </trkpt>
      <trkpt lat="47.01424" lon="-1.03432">
        <ele>276</ele>
        <time>2019-11-15T19:07:52Z</time>
      </trkpt>
      <trkpt lat="47.01424" lon="-1.03436">
        <ele>277</ele>
        <time>2019-11-15T19:07:54Z</time>
      </trkpt>
      <trkpt lat="47.01425" lon="-1.0344">
        <ele>277</ele>
        <time>2019-11-15T19:07:56Z</time>
      </trkpt>
      <trkpt lat="47.0143" lon="-1.03444">
        <ele>277</ele>
        <time>2019-11-15T19:08:00Z</time>
      </trkpt>
      <trkpt lat="47.0144" lon="-1.03469">
        <ele>276</ele>
        <time>2019-11-15T19:08:07Z</time>
      </trkpt>
      <trkpt lat="47.0145" lon="-1.03492">
        <ele>276</ele>
        <time>2019-11-15T19:08:14Z</time>
      </trkpt>
      <trkpt lat="47.01458" lon="-1.03507">
        <ele>276</ele>
        <time>2019-11-15T19:08:19Z</time>
      </trkpt>
      <trkpt lat="47.0146" lon="-1.03511">
        <ele>275</ele>
        <time>2019-11-15T19:08:20Z</time>
      </trkpt>
      <trkpt lat="47.01461" lon="-1.03515">
        <ele>275</ele>
        <time>2019-11-15T19:08:21Z</time>
      </trkpt>
      <trkpt lat="47.01462" lon="-1.03525">
        <ele>275</ele>
        <time>2019-11-15T19:08:24Z</time>
      </trkpt>
      <trkpt lat="47.01464" lon="-1.03532">
        <ele>275</ele>
        <time>2019-11-15T19:08:26Z</time>
      </trkpt>
      <trkpt lat="47.01472" lon="-1.03559">
        <ele>275</ele>
        <time>2019-11-15T19:08:34Z</time>
      </trkpt>
      <trkpt lat="47.01478" lon="-1.03585">
        <ele>275</ele>
        <time>2019-11-15T19:08:41Z</time>
      </trkpt>
      <trkpt lat="47.01484" lon="-1.03604">
        <ele>274</ele>
        <time>2019-11-15T19:08:46Z</time>
      </trkpt>
      <trkpt lat="47.01492" lon="-1.0363">
        <ele>274</ele>
        <time>2019-11-15T19:08:53Z</time>
      </trkpt>
      <trkpt lat="47.015" lon="-1.03654">
        <ele>274</ele>
        <time>2019-11-15T19:09:00Z</time>
      </trkpt>
      <trkpt lat="47.0151" lon="-1.03679">
        <ele>273</ele>
        <time>2019-11-15T19:09:08Z</time>
      </trkpt>
      <trkpt lat="47.0152" lon="-1.03697">
        <ele>272</ele>
        <time>2019-11-15T19:09:14Z</time>
      </trkpt>
      <trkpt lat="47.01533" lon="-1.03721">
        <ele>272</ele>
        <time>2019-11-15T19:09:22Z</time>
      </trkpt>
      <trkpt lat="47.01544" lon="-1.03744">
        <ele>271</ele>
        <time>2019-11-15T19:09:31Z</time>
      </trkpt>
      <trkpt lat="47.01545" lon="-1.03747">
        <ele>271</ele>
        <time>2019-11-15T19:09:32Z</time>
      </trkpt>
      <trkpt lat="47.01558" lon="-1.03771">
        <ele>271</ele>
        <time>2019-11-15T19:09:40Z</time>
      </trkpt>
      <trkpt lat="47.01567" lon="-1.03794">
        <ele>271</ele>
        <time>2019-11-15T19:09:47Z</time>
      </trkpt>
      <trkpt lat="47.01577" lon="-1.03818">
        <ele>272</ele>
        <time>2019-11-15T19:09:54Z</time>
      </trkpt>
      <trkpt lat="47.01586" lon="-1.03844">
        <ele>272</ele>
        <time>2019-11-15T19:10:01Z</time>
      </trkpt>
      <trkpt lat="47.01592" lon="-1.0386">
        <ele>272</ele>
        <time>2019-11-15T19:10:06Z</time>
      </trkpt>
      <trkpt lat="47.01602" lon="-1.03884">
        <ele>273</ele>
        <time>2019-11-15T19:10:13Z</time>
      </trkpt>
      <trkpt lat="47.01611" lon="-1.0391">
        <ele>273</ele>
        <time>2019-11-15T19:10:21Z</time>
      </trkpt>
      <trkpt lat="47.01615" lon="-1.03923">
        <ele>273</ele>
        <time>2019-11-15T19:10:25Z</time>
      </trkpt>
      <trkpt lat="47.01618" lon="-1.03933">
        <ele>273</ele>
        <time>2019-11-15T19:10:28Z</time>
      </trkpt>
      <trkpt lat="47.01622" lon="-1.0396">
        <ele>274</ele>
        <time>2019-11-15T19:10:36Z</time>
      </trkpt>
      <trkpt lat="47.01623" lon="-1.03987">
        <ele>274</ele>
        <time>2019-11-15T19:10:44Z</time>
      </trkpt>
      <trkpt lat="47.01624" lon="-1.03993">
        <ele>274</ele>
        <time>2019-11-15T19:10:47Z</time>
      </trkpt>
      <trkpt lat="47.01624" lon="-1.04001">
        <ele>275</ele>
        <time>2019-11-15T19:10:51Z</time>
      </trkpt>
      <trkpt lat="47.01623" lon="-1.04028">
        <ele>274</ele>
        <time>2019-11-15T19:11:03Z</time>
      </trkpt>
      <trkpt lat="47.01618" lon="-1.04054">
        <ele>274</ele>
        <time>2019-11-15T19:11:15Z</time>
      </trkpt>
      <trkpt lat="47.01616" lon="-1.04062">
        <ele>274</ele>
        <time>2019-11-15T19:11:17Z</time>
      </trkpt>
      <trkpt lat="47.01615" lon="-1.04089">
        <ele>274</ele>
        <time>2019-11-15T19:11:23Z</time>
      </trkpt>
      <trkpt lat="47.01615" lon="-1.04115">
        <ele>274</ele>
        <time>2019-11-15T19:11:29Z</time>
      </trkpt>
      <trkpt lat="47.01614" lon="-1.04119">
        <ele>273</ele>
        <time>2019-11-15T19:11:30Z</time>
      </trkpt>
      <trkpt lat="47.01609" lon="-1.04147">
        <ele>273</ele>
        <time>2019-11-15T19:11:36Z</time>
      </trkpt>
      <trkpt lat="47.01607" lon="-1.04161">
        <ele>272</ele>
        <time>2019-11-15T19:11:39Z</time>
      </trkpt>
      <trkpt lat="47.01607" lon="-1.0419">
        <ele>272</ele>
        <time>2019-11-15T19:11:46Z</time>
      </trkpt>
      <trkpt lat="47.01604" lon="-1.0422">
        <ele>272</ele>
        <time>2019-11-15T19:11:53Z</time>
      </trkpt>
      <trkpt lat="47.016" lon="-1.04247">
        <ele>272</ele>
        <time>2019-11-15T19:12:00Z</time>
      </trkpt>
      <trkpt lat="47.01597" lon="-1.04274">
        <ele>271</ele>
        <time>2019-11-15T19:12:07Z</time>
      </trkpt>
      <trkpt lat="47.01594" lon="-1.04302">
        <ele>271</ele>
        <time>2019-11-15T19:12:15Z</time>
      </trkpt>
      <trkpt lat="47.01591" lon="-1.04316">
        <ele>271</ele>
        <time>2019-11-15T19:12:19Z</time>
      </trkpt>
      <trkpt lat="47.01586" lon="-1.04346">
        <ele>272</ele>
        <time>2019-11-15T19:12:27Z</time>
      </trkpt>
      <trkpt lat="47.01583" lon="-1.04375">
        <ele>272</ele>
        <time>2019-11-15T19:12:34Z</time>
      </trkpt>
      <trkpt lat="47.01579" lon="-1.04401">
        <ele>272</ele>
        <time>2019-11-15T19:12:41Z</time>
      </trkpt>
      <trkpt lat="47.01579" lon="-1.04419">
        <ele>272</ele>
        <time>2019-11-15T19:12:46Z</time>
      </trkpt>
      <trkpt lat="47.01579" lon="-1.04429">
        <ele>273</ele>
        <time>2019-11-15T19:12:49Z</time>
      </trkpt>
      <trkpt lat="47.01577" lon="-1.04457">
        <ele>273</ele>
        <time>2019-11-15T19:12:56Z</time>
      </trkpt>
      <trkpt lat="47.01576" lon="-1.04484">
        <ele>273</ele>
        <time>2019-11-15T19:13:03Z</time>
      </trkpt>
      <trkpt lat="47.01574" lon="-1.04508">
        <ele>273</ele>
        <time>2019-11-15T19:13:09Z</time>
      </trkpt>
      <trkpt lat="47.01578" lon="-1.04531">
        <ele>274</ele>
        <time>2019-11-15T19:13:17Z</time>
      </trkpt>
      <trkpt lat="47.01577" lon="-1.04535">
        <ele>274</ele>
        <time>2019-11-15T19:13:18Z</time>
      </trkpt>
      <trkpt lat="47.01575" lon="-1.04561">
        <ele>275</ele>
        <time>2019-11-15T19:13:25Z</time>
      </trkpt>
      <trkpt lat="47.01575" lon="-1.04588">
        <ele>275</ele>
        <time>2019-11-15T19:13:32Z</time>
      </trkpt>
      <trkpt lat="47.01575" lon="-1.04594">
        <ele>275</ele>
        <time>2019-11-15T19:13:34Z</time>
      </trkpt>
      <trkpt lat="47.01576" lon="-1.04608">
        <ele>275</ele>
        <time>2019-11-15T19:13:38Z</time>
      </trkpt>
      <trkpt lat="47.01576" lon="-1.04615">
        <ele>275</ele>
        <time>2019-11-15T19:13:40Z</time>
      </trkpt>
      <trkpt lat="47.01577" lon="-1.04643">
        <ele>276</ele>
        <time>2019-11-15T19:13:47Z</time>
      </trkpt>
      <trkpt lat="47.0158" lon="-1.04671">
        <ele>276</ele>
        <time>2019-11-15T19:13:55Z</time>
      </trkpt>
      <trkpt lat="47.01584" lon="-1.047">
        <ele>276</ele>
        <time>2019-11-15T19:14:03Z</time>
      </trkpt>
      <trkpt lat="47.01587" lon="-1.04726">
        <ele>276</ele>
        <time>2019-11-15T19:14:10Z</time>
      </trkpt>
      <trkpt lat="47.01588" lon="-1.04742">
        <ele>276</ele>
        <time>2019-11-15T19:14:14Z</time>
      </trkpt>
      <trkpt lat="47.01593" lon="-1.0475">
        <ele>276</ele>
        <time>2019-11-15T19:14:17Z</time>
      </trkpt>
      <trkpt lat="47.01595" lon="-1.04779">
        <ele>276</ele>
        <time>2019-11-15T19:14:24Z</time>
      </trkpt>
      <trkpt lat="47.01595" lon="-1.04808">
        <ele>276</ele>
        <time>2019-11-15T19:14:31Z</time>
      </trkpt>
      <trkpt lat="47.01596" lon="-1.04837">
        <ele>275</ele>
        <time>2019-11-15T19:14:39Z</time>
      </trkpt>
      <trkpt lat="47.01598" lon="-1.04848">
        <ele>275</ele>
        <time>2019-11-15T19:14:42Z</time>
      </trkpt>
      <trkpt lat="47.01603" lon="-1.04875">
        <ele>275</ele>
        <time>2019-11-15T19:14:49Z</time>
      </trkpt>
      <trkpt lat="47.01604" lon="-1.04894">
        <ele>274</ele>
        <time>2019-11-15T19:14:54Z</time>
      </trkpt>
      <trkpt lat="47.01603" lon="-1.04924">
        <ele>274</ele>
        <time>2019-11-15T19:15:01Z</time>
      </trkpt>
      <trkpt lat="47.016" lon="-1.04949">
        <ele>273</ele>
        <time>2019-11-15T19:15:08Z</time>
      </trkpt>
      <trkpt lat="47.01599" lon="-1.04957">
        <ele>273</ele>
        <time>2019-11-15T19:15:10Z</time>
      </trkpt>
      <trkpt lat="47.01597" lon="-1.04985">
        <ele>273</ele>
        <time>2019-11-15T19:15:18Z</time>
      </trkpt>
      <trkpt lat="47.01594" lon="-1.05014">
        <ele>273</ele>
        <time>2019-11-15T19:15:26Z</time>
      </trkpt>
      <trkpt lat="47.01593" lon="-1.05041">
        <ele>272</ele>
        <time>2019-11-15T19:15:33Z</time>
      </trkpt>
      <trkpt lat="47.01594" lon="-1.05061">
        <ele>272</ele>
        <time>2019-11-15T19:15:38Z</time>
      </trkpt>
      <trkpt lat="47.01596" lon="-1.05074">
        <ele>272</ele>
        <time>2019-11-15T19:15:42Z</time>
      </trkpt>
      <trkpt lat="47.01598" lon="-1.05092">
        <ele>272</ele>
        <time>2019-11-15T19:15:47Z</time>
      </trkpt>
      <trkpt lat="47.01598" lon="-1.0512">
        <ele>272</ele>
        <time>2019-11-15T19:15:54Z</time>
      </trkpt>
      <trkpt lat="47.01598" lon="-1.05146">
        <ele>271</ele>
        <time>2019-11-15T19:16:01Z</time>
      </trkpt>
      <trkpt lat="47.01594" lon="-1.05173">
        <ele>272</ele>
        <time>2019-11-15T19:16:08Z</time>
      </trkpt>
      <trkpt lat="47.01592" lon="-1.05201">
        <ele>272</ele>
        <time>2019-11-15T19:16:16Z</time>
      </trkpt>
      <trkpt lat="47.0159" lon="-1.05228">
        <ele>273</ele>
        <time>2019-11-15T19:16:23Z</time>
      </trkpt>
      <trkpt lat="47.0159" lon="-1.05251">
        <ele>272</ele>
        <time>2019-11-15T19:16:29Z</time>
      </trkpt>
      <trkpt lat="47.01591" lon="-1.05261">
        <ele>272</ele>
        <time>2019-11-15T19:16:32Z</time>
      </trkpt>
      <trkpt lat="47.01592" lon="-1.05268">
        <ele>272</ele>
        <time>2019-11-15T19:16:34Z</time>
      </trkpt>
      <trkpt lat="47.01593" lon="-1.05296">
        <ele>272</ele>
        <time>2019-11-15T19:16:42Z</time>
      </trkpt>
      <trkpt lat="47.01595" lon="-1.05311">
        <ele>271</ele>
        <time>2019-11-15T19:16:46Z</time>
      </trkpt>
      <trkpt lat="47.01599" lon="-1.0534">
        <ele>270</ele>
        <time>2019-11-15T19:16:54Z</time>
      </trkpt>
      <trkpt lat="47.016" lon="-1.05351">
        <ele>270</ele>
        <time>2019-11-15T19:16:57Z</time>
      </trkpt>
      <trkpt lat="47.01605" lon="-1.05378">
        <ele>269</ele>
        <time>2019-11-15T19:17:04Z</time>
      </trkpt>
      <trkpt lat="47.01606" lon="-1.05394">
        <ele>269</ele>
        <time>2019-11-15T19:17:08Z</time>
      </trkpt>
      <trkpt lat="47.0161" lon="-1.0542">
        <ele>268</ele>
        <time>2019-11-15T19:17:15Z</time>
      </trkpt>
      <trkpt lat="47.01609" lon="-1.05447">
        <ele>268</ele>
        <time>2019-11-15T19:17:23Z</time>
      </trkpt>
      <trkpt lat="47.01606" lon="-1.05449">
        <ele>268</ele>
        <time>2019-11-15T19:17:24Z</time>
      </trkpt>
      <trkpt lat="47.01588" lon="-1.0545">
        <ele>267</ele>
        <time>2019-11-15T19:17:30Z</time>
      </trkpt>
      <trkpt lat="47.01578" lon="-1.05451">
        <ele>267</ele>
        <time>2019-11-15T19:17:33Z</time>
      </trkpt>
      <trkpt lat="47.0156" lon="-1.05457">
        <ele>266</ele>
        <time>2019-11-15T19:17:39Z</time>
      </trkpt>
      <trkpt lat="47.01551" lon="-1.0546">
        <ele>266</ele>
        <time>2019-11-15T19:17:43Z</time>
      </trkpt>
      <trkpt lat="47.01548" lon="-1.05461">
        <ele>265</ele>
        <time>2019-11-15T19:17:45Z</time>
      </trkpt>
      <trkpt lat="47.01533" lon="-1.05463">
        <ele>265</ele>
        <time>2019-11-15T19:17:51Z</time>
      </trkpt>
      <trkpt lat="47.01513" lon="-1.0547">
        <ele>264</ele>
        <time>2019-11-15T19:17:58Z</time>
      </trkpt>
      <trkpt lat="47.01504" lon="-1.05474">
        <ele>263</ele>
        <time>2019-11-15T19:18:01Z</time>
      </trkpt>
      <trkpt lat="47.01484" lon="-1.05481">
        <ele>262</ele>
        <time>2019-11-15T19:18:07Z</time>
      </trkpt>
      <trkpt lat="47.01481" lon="-1.05482">
        <ele>262</ele>
        <time>2019-11-15T19:18:08Z</time>
      </trkpt>
      <trkpt lat="47.01462" lon="-1.05488">
        <ele>262</ele>
        <time>2019-11-15T19:18:14Z</time>
      </trkpt>
      <trkpt lat="47.01441" lon="-1.05491">
        <ele>261</ele>
        <time>2019-11-15T19:18:21Z</time>
      </trkpt>
      <trkpt lat="47.01439" lon="-1.05492">
        <ele>261</ele>
        <time>2019-11-15T19:18:22Z</time>
      </trkpt>
      <trkpt lat="47.01421" lon="-1.05496">
        <ele>262</ele>
        <time>2019-11-15T19:18:29Z</time>
      </trkpt>
      <trkpt lat="47.01402" lon="-1.05501">
        <ele>261</ele>
        <time>2019-11-15T19:18:37Z</time>
      </trkpt>
      <trkpt lat="47.01383" lon="-1.05504">
        <ele>262</ele>
        <time>2019-11-15T19:18:44Z</time>
      </trkpt>
      <trkpt lat="47.01365" lon="-1.05508">
        <ele>261</ele>
        <time>2019-11-15T19:18:51Z</time>
      </trkpt>
      <trkpt lat="47.01345" lon="-1.05513">
        <ele>260</ele>
        <time>2019-11-15T19:18:59Z</time>
      </trkpt>
      <trkpt lat="47.0134" lon="-1.05513">
        <ele>260</ele>
        <time>2019-11-15T19:19:01Z</time>
      </trkpt>
      <trkpt lat="47.01321" lon="-1.05509">
        <ele>260</ele>
        <time>2019-11-15T19:19:08Z</time>
      </trkpt>
      <trkpt lat="47.01302" lon="-1.05505">
        <ele>260</ele>
        <time>2019-11-15T19:19:15Z</time>
      </trkpt>
      <trkpt lat="47.01283" lon="-1.05502">
        <ele>260</ele>
        <time>2019-11-15T19:19:22Z</time>
      </trkpt>
      <trkpt lat="47.01276" lon="-1.05502">
        <ele>259</ele>
        <time>2019-11-15T19:19:25Z</time>
      </trkpt>
      <trkpt lat="47.01265" lon="-1.05499">
        <ele>259</ele>
        <time>2019-11-15T19:19:29Z</time>
      </trkpt>
      <trkpt lat="47.01245" lon="-1.05496">
        <ele>259</ele>
        <time>2019-11-15T19:19:36Z</time>
      </trkpt>
      <trkpt lat="47.01225" lon="-1.05492">
        <ele>259</ele>
        <time>2019-11-15T19:19:43Z</time>
      </trkpt>
      <trkpt lat="47.01211" lon="-1.05489">
        <ele>258</ele>
        <time>2019-11-15T19:19:48Z</time>
      </trkpt>
      <trkpt lat="47.01208" lon="-1.05488">
        <ele>258</ele>
        <time>2019-11-15T19:19:49Z</time>
      </trkpt>
      <trkpt lat="47.01189" lon="-1.05488">
        <ele>257</ele>
        <time>2019-11-15T19:19:56Z</time>
      </trkpt>
      <trkpt lat="47.01186" lon="-1.05487">
        <ele>257</ele>
        <time>2019-11-15T19:19:57Z</time>
      </trkpt>
      <trkpt lat="47.01167" lon="-1.05491">
        <ele>256</ele>
        <time>2019-11-15T19:20:04Z</time>
      </trkpt>
      <trkpt lat="47.01159" lon="-1.05495">
        <ele>256</ele>
        <time>2019-11-15T19:20:07Z</time>
      </trkpt>
      <trkpt lat="47.0114" lon="-1.05505">
        <ele>255</ele>
        <time>2019-11-15T19:20:14Z</time>
      </trkpt>
      <trkpt lat="47.01135" lon="-1.05509">
        <ele>255</ele>
        <time>2019-11-15T19:20:16Z</time>
      </trkpt>
      <trkpt lat="47.01117" lon="-1.05524">
        <ele>254</ele>
        <time>2019-11-15T19:20:23Z</time>
      </trkpt>
      <trkpt lat="47.0111" lon="-1.05547">
        <ele>254</ele>
        <time>2019-11-15T19:20:29Z</time>
      </trkpt>
      <trkpt lat="47.01106" lon="-1.05563">
        <ele>253</ele>
        <time>2019-11-15T19:20:34Z</time>
      </trkpt>
      <trkpt lat="47.01103" lon="-1.05561">
        <ele>253</ele>
        <time>2019-11-15T19:20:36Z</time>
      </trkpt>
      <trkpt lat="47.01098" lon="-1.05559">
        <ele>252</ele>
        <time>2019-11-15T19:20:40Z</time>
      </trkpt>
      <trkpt lat="47.01096" lon="-1.05558">
        <ele>252</ele>
        <time>2019-11-15T19:20:42Z</time>
      </trkpt>
    </trkseg>
  </trk>
</gpx>